<?xml version="1.0" encoding="UTF-8" standalone="no" ?>
<gpx xmlns="http://www.topografix.com/GPX/1/1" xmlns:xsi="http://www.w3.org/2001/XMLSchema-instance" xsi:schemaLocation="http://www.topografix.com/GPX/1/1 http://www.topografix.com/GPX/1/1/gpx.xsd" version="1.1" creator="VisuGPX - https://www.visugpx.com">
  <metadata>
    <name>83 - L - Sillans la cascade</name>
    <desc><![CDATA[83 - L - Sillans la cascade - village - château de Bresc]]></desc>
  </metadata>
  <trk>
    <name><![CDATA[Sillans la cascade le village chateau de Bresc 2026-03-16-01]]></name>
    <trkseg>
      <trkpt lat="43.56799" lon="6.18171">
        <ele>430.2</ele>
        <time>2026-03-16T08:10:19Z</time>
      </trkpt>
      <trkpt lat="43.56796" lon="6.18174">
        <ele>430</ele>
        <time>2026-03-16T08:10:23Z</time>
      </trkpt>
      <trkpt lat="43.56797" lon="6.18187">
        <ele>430</ele>
        <time>2026-03-16T08:10:45Z</time>
      </trkpt>
      <trkpt lat="43.56798" lon="6.18171">
        <ele>430.5</ele>
        <time>2026-03-16T08:10:56Z</time>
      </trkpt>
      <trkpt lat="43.56807" lon="6.18168">
        <ele>430.7</ele>
        <time>2026-03-16T08:14:41Z</time>
      </trkpt>
      <trkpt lat="43.56815" lon="6.18162">
        <ele>430.7</ele>
        <time>2026-03-16T08:15:18Z</time>
      </trkpt>
      <trkpt lat="43.56821" lon="6.18151">
        <ele>430.9</ele>
        <time>2026-03-16T08:15:31Z</time>
      </trkpt>
      <trkpt lat="43.56826" lon="6.1814">
        <ele>430.7</ele>
        <time>2026-03-16T08:15:45Z</time>
      </trkpt>
      <trkpt lat="43.56834" lon="6.18133">
        <ele>431.2</ele>
        <time>2026-03-16T08:15:58Z</time>
      </trkpt>
      <trkpt lat="43.56838" lon="6.18121">
        <ele>431.5</ele>
        <time>2026-03-16T08:16:23Z</time>
      </trkpt>
      <trkpt lat="43.56836" lon="6.18108">
        <ele>431.5</ele>
        <time>2026-03-16T08:16:31Z</time>
      </trkpt>
      <trkpt lat="43.56833" lon="6.18096">
        <ele>431.7</ele>
        <time>2026-03-16T08:16:39Z</time>
      </trkpt>
      <trkpt lat="43.56831" lon="6.18084">
        <ele>431.4</ele>
        <time>2026-03-16T08:16:47Z</time>
      </trkpt>
      <trkpt lat="43.56827" lon="6.1807">
        <ele>431.5</ele>
        <time>2026-03-16T08:16:55Z</time>
      </trkpt>
      <trkpt lat="43.5682" lon="6.1806">
        <ele>431.4</ele>
        <time>2026-03-16T08:17:04Z</time>
      </trkpt>
      <trkpt lat="43.56818" lon="6.18048">
        <ele>430.3</ele>
        <time>2026-03-16T08:17:52Z</time>
      </trkpt>
      <trkpt lat="43.56821" lon="6.18035">
        <ele>430.1</ele>
        <time>2026-03-16T08:18:12Z</time>
      </trkpt>
      <trkpt lat="43.56821" lon="6.18022">
        <ele>429.7</ele>
        <time>2026-03-16T08:18:26Z</time>
      </trkpt>
      <trkpt lat="43.56824" lon="6.18008">
        <ele>429.6</ele>
        <time>2026-03-16T08:18:37Z</time>
      </trkpt>
      <trkpt lat="43.56824" lon="6.17995">
        <ele>430.2</ele>
        <time>2026-03-16T08:18:48Z</time>
      </trkpt>
      <trkpt lat="43.56825" lon="6.17982">
        <ele>431.1</ele>
        <time>2026-03-16T08:19:01Z</time>
      </trkpt>
      <trkpt lat="43.56826" lon="6.17969">
        <ele>432.1</ele>
        <time>2026-03-16T08:19:11Z</time>
      </trkpt>
      <trkpt lat="43.56824" lon="6.17956">
        <ele>432.7</ele>
        <time>2026-03-16T08:19:22Z</time>
      </trkpt>
      <trkpt lat="43.56822" lon="6.17944">
        <ele>431.4</ele>
        <time>2026-03-16T08:19:33Z</time>
      </trkpt>
      <trkpt lat="43.56824" lon="6.17931">
        <ele>433.3</ele>
        <time>2026-03-16T08:19:44Z</time>
      </trkpt>
      <trkpt lat="43.56824" lon="6.17918">
        <ele>432.3</ele>
        <time>2026-03-16T08:19:56Z</time>
      </trkpt>
      <trkpt lat="43.56822" lon="6.17905">
        <ele>431.2</ele>
        <time>2026-03-16T08:20:05Z</time>
      </trkpt>
      <trkpt lat="43.56819" lon="6.17893">
        <ele>430.4</ele>
        <time>2026-03-16T08:20:14Z</time>
      </trkpt>
      <trkpt lat="43.56817" lon="6.17881">
        <ele>430.3</ele>
        <time>2026-03-16T08:20:24Z</time>
      </trkpt>
      <trkpt lat="43.56813" lon="6.17869">
        <ele>430.2</ele>
        <time>2026-03-16T08:20:35Z</time>
      </trkpt>
      <trkpt lat="43.56811" lon="6.17855">
        <ele>429.7</ele>
        <time>2026-03-16T08:20:45Z</time>
      </trkpt>
      <trkpt lat="43.56807" lon="6.17844">
        <ele>428.7</ele>
        <time>2026-03-16T08:20:55Z</time>
      </trkpt>
      <trkpt lat="43.56802" lon="6.17833">
        <ele>428.1</ele>
        <time>2026-03-16T08:21:04Z</time>
      </trkpt>
      <trkpt lat="43.56798" lon="6.17821">
        <ele>426.9</ele>
        <time>2026-03-16T08:21:13Z</time>
      </trkpt>
      <trkpt lat="43.56794" lon="6.17809">
        <ele>425.8</ele>
        <time>2026-03-16T08:21:24Z</time>
      </trkpt>
      <trkpt lat="43.56793" lon="6.17796">
        <ele>425.6</ele>
        <time>2026-03-16T08:21:35Z</time>
      </trkpt>
      <trkpt lat="43.56791" lon="6.17783">
        <ele>425.5</ele>
        <time>2026-03-16T08:21:43Z</time>
      </trkpt>
      <trkpt lat="43.56793" lon="6.17771">
        <ele>425.5</ele>
        <time>2026-03-16T08:21:53Z</time>
      </trkpt>
      <trkpt lat="43.56792" lon="6.17758">
        <ele>425.2</ele>
        <time>2026-03-16T08:22:02Z</time>
      </trkpt>
      <trkpt lat="43.56794" lon="6.17746">
        <ele>425.2</ele>
        <time>2026-03-16T08:22:12Z</time>
      </trkpt>
      <trkpt lat="43.56799" lon="6.17735">
        <ele>424.9</ele>
        <time>2026-03-16T08:22:22Z</time>
      </trkpt>
      <trkpt lat="43.56798" lon="6.17722">
        <ele>424.7</ele>
        <time>2026-03-16T08:22:33Z</time>
      </trkpt>
      <trkpt lat="43.56801" lon="6.1771">
        <ele>424.9</ele>
        <time>2026-03-16T08:22:46Z</time>
      </trkpt>
      <trkpt lat="43.56807" lon="6.177">
        <ele>424.1</ele>
        <time>2026-03-16T08:23:02Z</time>
      </trkpt>
      <trkpt lat="43.56813" lon="6.1769">
        <ele>424</ele>
        <time>2026-03-16T08:23:12Z</time>
      </trkpt>
      <trkpt lat="43.56821" lon="6.17682">
        <ele>423.3</ele>
        <time>2026-03-16T08:23:26Z</time>
      </trkpt>
      <trkpt lat="43.56827" lon="6.17673">
        <ele>422.5</ele>
        <time>2026-03-16T08:23:37Z</time>
      </trkpt>
      <trkpt lat="43.56836" lon="6.17669">
        <ele>421.3</ele>
        <time>2026-03-16T08:23:55Z</time>
      </trkpt>
      <trkpt lat="43.56843" lon="6.17676">
        <ele>419.2</ele>
        <time>2026-03-16T08:24:44Z</time>
      </trkpt>
      <trkpt lat="43.56847" lon="6.17688">
        <ele>418.8</ele>
        <time>2026-03-16T08:24:56Z</time>
      </trkpt>
      <trkpt lat="43.56846" lon="6.17701">
        <ele>418.3</ele>
        <time>2026-03-16T08:25:11Z</time>
      </trkpt>
      <trkpt lat="43.56844" lon="6.17689">
        <ele>415.4</ele>
        <time>2026-03-16T08:26:24Z</time>
      </trkpt>
      <trkpt lat="43.5684" lon="6.17678">
        <ele>415.2</ele>
        <time>2026-03-16T08:26:36Z</time>
      </trkpt>
      <trkpt lat="43.56837" lon="6.17664">
        <ele>414.9</ele>
        <time>2026-03-16T08:26:49Z</time>
      </trkpt>
      <trkpt lat="43.56835" lon="6.17651">
        <ele>414.6</ele>
        <time>2026-03-16T08:27:01Z</time>
      </trkpt>
      <trkpt lat="43.56834" lon="6.17637">
        <ele>414.5</ele>
        <time>2026-03-16T08:27:12Z</time>
      </trkpt>
      <trkpt lat="43.56835" lon="6.17625">
        <ele>414.1</ele>
        <time>2026-03-16T08:27:33Z</time>
      </trkpt>
      <trkpt lat="43.56835" lon="6.17611">
        <ele>413.7</ele>
        <time>2026-03-16T08:27:43Z</time>
      </trkpt>
      <trkpt lat="43.56836" lon="6.17598">
        <ele>413.5</ele>
        <time>2026-03-16T08:27:52Z</time>
      </trkpt>
      <trkpt lat="43.56838" lon="6.17585">
        <ele>413.4</ele>
        <time>2026-03-16T08:28:02Z</time>
      </trkpt>
      <trkpt lat="43.56841" lon="6.17572">
        <ele>413.3</ele>
        <time>2026-03-16T08:28:10Z</time>
      </trkpt>
      <trkpt lat="43.56843" lon="6.1756">
        <ele>413.1</ele>
        <time>2026-03-16T08:28:17Z</time>
      </trkpt>
      <trkpt lat="43.56845" lon="6.17547">
        <ele>412.8</ele>
        <time>2026-03-16T08:28:26Z</time>
      </trkpt>
      <trkpt lat="43.56846" lon="6.17534">
        <ele>412.4</ele>
        <time>2026-03-16T08:28:36Z</time>
      </trkpt>
      <trkpt lat="43.56848" lon="6.17522">
        <ele>412.2</ele>
        <time>2026-03-16T08:28:45Z</time>
      </trkpt>
      <trkpt lat="43.56851" lon="6.17508">
        <ele>412.2</ele>
        <time>2026-03-16T08:28:55Z</time>
      </trkpt>
      <trkpt lat="43.56851" lon="6.17495">
        <ele>412</ele>
        <time>2026-03-16T08:29:04Z</time>
      </trkpt>
      <trkpt lat="43.56854" lon="6.17482">
        <ele>412.1</ele>
        <time>2026-03-16T08:29:13Z</time>
      </trkpt>
      <trkpt lat="43.56857" lon="6.17469">
        <ele>411.9</ele>
        <time>2026-03-16T08:29:21Z</time>
      </trkpt>
      <trkpt lat="43.5686" lon="6.17457">
        <ele>411.8</ele>
        <time>2026-03-16T08:29:29Z</time>
      </trkpt>
      <trkpt lat="43.56863" lon="6.17445">
        <ele>411.5</ele>
        <time>2026-03-16T08:29:42Z</time>
      </trkpt>
      <trkpt lat="43.56865" lon="6.17432">
        <ele>411.2</ele>
        <time>2026-03-16T08:29:59Z</time>
      </trkpt>
      <trkpt lat="43.56867" lon="6.1742">
        <ele>411.3</ele>
        <time>2026-03-16T08:30:11Z</time>
      </trkpt>
      <trkpt lat="43.56869" lon="6.17408">
        <ele>411.2</ele>
        <time>2026-03-16T08:30:20Z</time>
      </trkpt>
      <trkpt lat="43.56872" lon="6.17395">
        <ele>411.2</ele>
        <time>2026-03-16T08:30:28Z</time>
      </trkpt>
      <trkpt lat="43.56875" lon="6.17382">
        <ele>410.9</ele>
        <time>2026-03-16T08:30:38Z</time>
      </trkpt>
      <trkpt lat="43.56877" lon="6.17369">
        <ele>411</ele>
        <time>2026-03-16T08:30:48Z</time>
      </trkpt>
      <trkpt lat="43.5688" lon="6.17357">
        <ele>410.8</ele>
        <time>2026-03-16T08:30:55Z</time>
      </trkpt>
      <trkpt lat="43.5688" lon="6.17343">
        <ele>410.4</ele>
        <time>2026-03-16T08:31:03Z</time>
      </trkpt>
      <trkpt lat="43.56882" lon="6.1733">
        <ele>410.1</ele>
        <time>2026-03-16T08:31:12Z</time>
      </trkpt>
      <trkpt lat="43.56884" lon="6.17317">
        <ele>409.7</ele>
        <time>2026-03-16T08:31:23Z</time>
      </trkpt>
      <trkpt lat="43.56887" lon="6.17303">
        <ele>409</ele>
        <time>2026-03-16T08:31:33Z</time>
      </trkpt>
      <trkpt lat="43.5689" lon="6.17292">
        <ele>408.6</ele>
        <time>2026-03-16T08:31:42Z</time>
      </trkpt>
      <trkpt lat="43.5689" lon="6.17279">
        <ele>408.5</ele>
        <time>2026-03-16T08:31:49Z</time>
      </trkpt>
      <trkpt lat="43.5689" lon="6.17266">
        <ele>408.2</ele>
        <time>2026-03-16T08:31:59Z</time>
      </trkpt>
      <trkpt lat="43.5689" lon="6.17249">
        <ele>407.7</ele>
        <time>2026-03-16T08:32:10Z</time>
      </trkpt>
      <trkpt lat="43.56888" lon="6.17236">
        <ele>407.4</ele>
        <time>2026-03-16T08:32:18Z</time>
      </trkpt>
      <trkpt lat="43.56887" lon="6.17223">
        <ele>407.1</ele>
        <time>2026-03-16T08:32:26Z</time>
      </trkpt>
      <trkpt lat="43.56886" lon="6.1721">
        <ele>406.9</ele>
        <time>2026-03-16T08:32:34Z</time>
      </trkpt>
      <trkpt lat="43.56883" lon="6.17197">
        <ele>406.5</ele>
        <time>2026-03-16T08:32:43Z</time>
      </trkpt>
      <trkpt lat="43.56881" lon="6.17184">
        <ele>406</ele>
        <time>2026-03-16T08:32:52Z</time>
      </trkpt>
      <trkpt lat="43.56877" lon="6.17173">
        <ele>405.5</ele>
        <time>2026-03-16T08:32:59Z</time>
      </trkpt>
      <trkpt lat="43.56873" lon="6.17162">
        <ele>405.2</ele>
        <time>2026-03-16T08:33:09Z</time>
      </trkpt>
      <trkpt lat="43.5687" lon="6.1715">
        <ele>404.9</ele>
        <time>2026-03-16T08:33:20Z</time>
      </trkpt>
      <trkpt lat="43.56865" lon="6.17138">
        <ele>404.5</ele>
        <time>2026-03-16T08:33:29Z</time>
      </trkpt>
      <trkpt lat="43.56863" lon="6.17126">
        <ele>404</ele>
        <time>2026-03-16T08:33:38Z</time>
      </trkpt>
      <trkpt lat="43.56858" lon="6.17114">
        <ele>403.8</ele>
        <time>2026-03-16T08:33:48Z</time>
      </trkpt>
      <trkpt lat="43.56854" lon="6.17102">
        <ele>403.2</ele>
        <time>2026-03-16T08:34:00Z</time>
      </trkpt>
      <trkpt lat="43.56853" lon="6.1709">
        <ele>403</ele>
        <time>2026-03-16T08:34:11Z</time>
      </trkpt>
      <trkpt lat="43.5685" lon="6.17076">
        <ele>402.6</ele>
        <time>2026-03-16T08:34:23Z</time>
      </trkpt>
      <trkpt lat="43.56846" lon="6.17064">
        <ele>402.4</ele>
        <time>2026-03-16T08:34:33Z</time>
      </trkpt>
      <trkpt lat="43.5684" lon="6.17055">
        <ele>402.3</ele>
        <time>2026-03-16T08:34:43Z</time>
      </trkpt>
      <trkpt lat="43.56838" lon="6.17042">
        <ele>402</ele>
        <time>2026-03-16T08:34:53Z</time>
      </trkpt>
      <trkpt lat="43.5684" lon="6.1703">
        <ele>401.5</ele>
        <time>2026-03-16T08:35:07Z</time>
      </trkpt>
      <trkpt lat="43.56833" lon="6.1702">
        <ele>400</ele>
        <time>2026-03-16T08:35:49Z</time>
      </trkpt>
      <trkpt lat="43.56826" lon="6.17012">
        <ele>399.7</ele>
        <time>2026-03-16T08:35:58Z</time>
      </trkpt>
      <trkpt lat="43.56821" lon="6.17">
        <ele>399.5</ele>
        <time>2026-03-16T08:36:07Z</time>
      </trkpt>
      <trkpt lat="43.56816" lon="6.16989">
        <ele>399.2</ele>
        <time>2026-03-16T08:36:17Z</time>
      </trkpt>
      <trkpt lat="43.56815" lon="6.16976">
        <ele>399</ele>
        <time>2026-03-16T08:36:27Z</time>
      </trkpt>
      <trkpt lat="43.56813" lon="6.16963">
        <ele>398.8</ele>
        <time>2026-03-16T08:36:36Z</time>
      </trkpt>
      <trkpt lat="43.56813" lon="6.1695">
        <ele>398</ele>
        <time>2026-03-16T08:37:09Z</time>
      </trkpt>
      <trkpt lat="43.56811" lon="6.16938">
        <ele>397.6</ele>
        <time>2026-03-16T08:37:20Z</time>
      </trkpt>
      <trkpt lat="43.56809" lon="6.16926">
        <ele>397.5</ele>
        <time>2026-03-16T08:37:30Z</time>
      </trkpt>
      <trkpt lat="43.56802" lon="6.16916">
        <ele>397</ele>
        <time>2026-03-16T08:37:43Z</time>
      </trkpt>
      <trkpt lat="43.56796" lon="6.16906">
        <ele>396.8</ele>
        <time>2026-03-16T08:37:55Z</time>
      </trkpt>
      <trkpt lat="43.56795" lon="6.16893">
        <ele>396.7</ele>
        <time>2026-03-16T08:38:05Z</time>
      </trkpt>
      <trkpt lat="43.56792" lon="6.1688">
        <ele>396.5</ele>
        <time>2026-03-16T08:38:15Z</time>
      </trkpt>
      <trkpt lat="43.56791" lon="6.16868">
        <ele>396.5</ele>
        <time>2026-03-16T08:38:23Z</time>
      </trkpt>
      <trkpt lat="43.56788" lon="6.16855">
        <ele>396.2</ele>
        <time>2026-03-16T08:38:33Z</time>
      </trkpt>
      <trkpt lat="43.56787" lon="6.16841">
        <ele>395.9</ele>
        <time>2026-03-16T08:38:43Z</time>
      </trkpt>
      <trkpt lat="43.56786" lon="6.16828">
        <ele>395.7</ele>
        <time>2026-03-16T08:38:53Z</time>
      </trkpt>
      <trkpt lat="43.56786" lon="6.16815">
        <ele>395.5</ele>
        <time>2026-03-16T08:39:02Z</time>
      </trkpt>
      <trkpt lat="43.56788" lon="6.16802">
        <ele>395.6</ele>
        <time>2026-03-16T08:39:11Z</time>
      </trkpt>
      <trkpt lat="43.56787" lon="6.16789">
        <ele>395.3</ele>
        <time>2026-03-16T08:39:20Z</time>
      </trkpt>
      <trkpt lat="43.56789" lon="6.16776">
        <ele>395.3</ele>
        <time>2026-03-16T08:39:30Z</time>
      </trkpt>
      <trkpt lat="43.56791" lon="6.16763">
        <ele>394.7</ele>
        <time>2026-03-16T08:39:43Z</time>
      </trkpt>
      <trkpt lat="43.56793" lon="6.1675">
        <ele>394.2</ele>
        <time>2026-03-16T08:40:01Z</time>
      </trkpt>
      <trkpt lat="43.56797" lon="6.16738">
        <ele>393.7</ele>
        <time>2026-03-16T08:40:11Z</time>
      </trkpt>
      <trkpt lat="43.568" lon="6.16726">
        <ele>393.7</ele>
        <time>2026-03-16T08:40:19Z</time>
      </trkpt>
      <trkpt lat="43.56803" lon="6.16715">
        <ele>393.9</ele>
        <time>2026-03-16T08:40:28Z</time>
      </trkpt>
      <trkpt lat="43.5681" lon="6.16706">
        <ele>393.6</ele>
        <time>2026-03-16T08:40:34Z</time>
      </trkpt>
      <trkpt lat="43.56815" lon="6.16695">
        <ele>393.3</ele>
        <time>2026-03-16T08:40:43Z</time>
      </trkpt>
      <trkpt lat="43.56821" lon="6.16684">
        <ele>393.3</ele>
        <time>2026-03-16T08:40:51Z</time>
      </trkpt>
      <trkpt lat="43.56829" lon="6.16676">
        <ele>392.8</ele>
        <time>2026-03-16T08:41:13Z</time>
      </trkpt>
      <trkpt lat="43.56837" lon="6.16668">
        <ele>392.7</ele>
        <time>2026-03-16T08:41:22Z</time>
      </trkpt>
      <trkpt lat="43.56844" lon="6.16659">
        <ele>392.8</ele>
        <time>2026-03-16T08:41:31Z</time>
      </trkpt>
      <trkpt lat="43.5685" lon="6.16649">
        <ele>392.8</ele>
        <time>2026-03-16T08:41:38Z</time>
      </trkpt>
      <trkpt lat="43.56856" lon="6.1664">
        <ele>392.9</ele>
        <time>2026-03-16T08:41:47Z</time>
      </trkpt>
      <trkpt lat="43.56862" lon="6.1663">
        <ele>392.8</ele>
        <time>2026-03-16T08:42:01Z</time>
      </trkpt>
      <trkpt lat="43.5687" lon="6.16622">
        <ele>392.6</ele>
        <time>2026-03-16T08:42:08Z</time>
      </trkpt>
      <trkpt lat="43.56876" lon="6.16611">
        <ele>392.3</ele>
        <time>2026-03-16T08:42:18Z</time>
      </trkpt>
      <trkpt lat="43.56883" lon="6.16602">
        <ele>392.4</ele>
        <time>2026-03-16T08:42:26Z</time>
      </trkpt>
      <trkpt lat="43.56889" lon="6.16592">
        <ele>392.4</ele>
        <time>2026-03-16T08:42:34Z</time>
      </trkpt>
      <trkpt lat="43.56894" lon="6.16581">
        <ele>392.3</ele>
        <time>2026-03-16T08:42:43Z</time>
      </trkpt>
      <trkpt lat="43.56901" lon="6.16573">
        <ele>392.3</ele>
        <time>2026-03-16T08:42:53Z</time>
      </trkpt>
      <trkpt lat="43.56911" lon="6.16568">
        <ele>391.4</ele>
        <time>2026-03-16T08:43:40Z</time>
      </trkpt>
      <trkpt lat="43.56918" lon="6.16559">
        <ele>391</ele>
        <time>2026-03-16T08:43:56Z</time>
      </trkpt>
      <trkpt lat="43.56924" lon="6.16548">
        <ele>390.5</ele>
        <time>2026-03-16T08:44:21Z</time>
      </trkpt>
      <trkpt lat="43.56933" lon="6.16543">
        <ele>390.2</ele>
        <time>2026-03-16T08:44:29Z</time>
      </trkpt>
      <trkpt lat="43.56939" lon="6.16533">
        <ele>390</ele>
        <time>2026-03-16T08:44:37Z</time>
      </trkpt>
      <trkpt lat="43.56946" lon="6.16525">
        <ele>389.3</ele>
        <time>2026-03-16T08:44:51Z</time>
      </trkpt>
      <trkpt lat="43.56953" lon="6.16517">
        <ele>388.9</ele>
        <time>2026-03-16T08:45:00Z</time>
      </trkpt>
      <trkpt lat="43.56962" lon="6.16512">
        <ele>388.5</ele>
        <time>2026-03-16T08:45:08Z</time>
      </trkpt>
      <trkpt lat="43.56972" lon="6.16509">
        <ele>388</ele>
        <time>2026-03-16T08:45:20Z</time>
      </trkpt>
      <trkpt lat="43.56981" lon="6.16504">
        <ele>388</ele>
        <time>2026-03-16T08:45:31Z</time>
      </trkpt>
      <trkpt lat="43.56989" lon="6.165">
        <ele>387.8</ele>
        <time>2026-03-16T08:45:40Z</time>
      </trkpt>
      <trkpt lat="43.56997" lon="6.16493">
        <ele>387.4</ele>
        <time>2026-03-16T08:45:51Z</time>
      </trkpt>
      <trkpt lat="43.57005" lon="6.16485">
        <ele>387.3</ele>
        <time>2026-03-16T08:46:01Z</time>
      </trkpt>
      <trkpt lat="43.57013" lon="6.16477">
        <ele>387.1</ele>
        <time>2026-03-16T08:46:19Z</time>
      </trkpt>
      <trkpt lat="43.57021" lon="6.1647">
        <ele>387.2</ele>
        <time>2026-03-16T08:46:29Z</time>
      </trkpt>
      <trkpt lat="43.57028" lon="6.16461">
        <ele>387.1</ele>
        <time>2026-03-16T08:46:38Z</time>
      </trkpt>
      <trkpt lat="43.57035" lon="6.16453">
        <ele>387.6</ele>
        <time>2026-03-16T08:46:50Z</time>
      </trkpt>
      <trkpt lat="43.57042" lon="6.16445">
        <ele>387.8</ele>
        <time>2026-03-16T08:47:00Z</time>
      </trkpt>
      <trkpt lat="43.5705" lon="6.16437">
        <ele>388.3</ele>
        <time>2026-03-16T08:47:10Z</time>
      </trkpt>
      <trkpt lat="43.57055" lon="6.16427">
        <ele>388.9</ele>
        <time>2026-03-16T08:47:29Z</time>
      </trkpt>
      <trkpt lat="43.57062" lon="6.16419">
        <ele>389.4</ele>
        <time>2026-03-16T08:47:37Z</time>
      </trkpt>
      <trkpt lat="43.5707" lon="6.16412">
        <ele>389.9</ele>
        <time>2026-03-16T08:47:45Z</time>
      </trkpt>
      <trkpt lat="43.57077" lon="6.16404">
        <ele>390.6</ele>
        <time>2026-03-16T08:47:59Z</time>
      </trkpt>
      <trkpt lat="43.57086" lon="6.16397">
        <ele>391.2</ele>
        <time>2026-03-16T08:48:08Z</time>
      </trkpt>
      <trkpt lat="43.57093" lon="6.16389">
        <ele>391.5</ele>
        <time>2026-03-16T08:48:17Z</time>
      </trkpt>
      <trkpt lat="43.57101" lon="6.16383">
        <ele>391.9</ele>
        <time>2026-03-16T08:48:27Z</time>
      </trkpt>
      <trkpt lat="43.57109" lon="6.16376">
        <ele>392.6</ele>
        <time>2026-03-16T08:48:38Z</time>
      </trkpt>
      <trkpt lat="43.57117" lon="6.1637">
        <ele>393.3</ele>
        <time>2026-03-16T08:48:47Z</time>
      </trkpt>
      <trkpt lat="43.57124" lon="6.16362">
        <ele>394</ele>
        <time>2026-03-16T08:48:57Z</time>
      </trkpt>
      <trkpt lat="43.57131" lon="6.16353">
        <ele>394.9</ele>
        <time>2026-03-16T08:49:10Z</time>
      </trkpt>
      <trkpt lat="43.57138" lon="6.16346">
        <ele>395.4</ele>
        <time>2026-03-16T08:49:21Z</time>
      </trkpt>
      <trkpt lat="43.57145" lon="6.16337">
        <ele>396.2</ele>
        <time>2026-03-16T08:49:42Z</time>
      </trkpt>
      <trkpt lat="43.57153" lon="6.16329">
        <ele>397</ele>
        <time>2026-03-16T08:49:54Z</time>
      </trkpt>
      <trkpt lat="43.57161" lon="6.16323">
        <ele>397.2</ele>
        <time>2026-03-16T08:53:01Z</time>
      </trkpt>
      <trkpt lat="43.5717" lon="6.16316">
        <ele>398</ele>
        <time>2026-03-16T08:53:09Z</time>
      </trkpt>
      <trkpt lat="43.57175" lon="6.16306">
        <ele>399.1</ele>
        <time>2026-03-16T08:53:18Z</time>
      </trkpt>
      <trkpt lat="43.5718" lon="6.16296">
        <ele>400</ele>
        <time>2026-03-16T08:53:26Z</time>
      </trkpt>
      <trkpt lat="43.57185" lon="6.16284">
        <ele>401</ele>
        <time>2026-03-16T08:53:36Z</time>
      </trkpt>
      <trkpt lat="43.57189" lon="6.16272">
        <ele>401.8</ele>
        <time>2026-03-16T08:53:46Z</time>
      </trkpt>
      <trkpt lat="43.57194" lon="6.16261">
        <ele>402.7</ele>
        <time>2026-03-16T08:53:58Z</time>
      </trkpt>
      <trkpt lat="43.572" lon="6.16251">
        <ele>403.5</ele>
        <time>2026-03-16T08:54:08Z</time>
      </trkpt>
      <trkpt lat="43.57207" lon="6.16241">
        <ele>404.1</ele>
        <time>2026-03-16T08:54:17Z</time>
      </trkpt>
      <trkpt lat="43.57211" lon="6.16229">
        <ele>404.8</ele>
        <time>2026-03-16T08:54:28Z</time>
      </trkpt>
      <trkpt lat="43.57217" lon="6.1622">
        <ele>405.4</ele>
        <time>2026-03-16T08:54:38Z</time>
      </trkpt>
      <trkpt lat="43.57218" lon="6.16207">
        <ele>406.3</ele>
        <time>2026-03-16T08:54:58Z</time>
      </trkpt>
      <trkpt lat="43.57224" lon="6.16198">
        <ele>406.6</ele>
        <time>2026-03-16T08:55:10Z</time>
      </trkpt>
      <trkpt lat="43.5723" lon="6.16188">
        <ele>407.2</ele>
        <time>2026-03-16T08:55:34Z</time>
      </trkpt>
      <trkpt lat="43.57237" lon="6.16179">
        <ele>407.4</ele>
        <time>2026-03-16T08:55:50Z</time>
      </trkpt>
      <trkpt lat="43.57242" lon="6.16167">
        <ele>407.7</ele>
        <time>2026-03-16T08:56:00Z</time>
      </trkpt>
      <trkpt lat="43.57245" lon="6.16154">
        <ele>408.1</ele>
        <time>2026-03-16T08:56:13Z</time>
      </trkpt>
      <trkpt lat="43.57251" lon="6.16143">
        <ele>408.5</ele>
        <time>2026-03-16T08:56:24Z</time>
      </trkpt>
      <trkpt lat="43.57256" lon="6.16132">
        <ele>408.6</ele>
        <time>2026-03-16T08:56:34Z</time>
      </trkpt>
      <trkpt lat="43.57258" lon="6.16119">
        <ele>408.4</ele>
        <time>2026-03-16T08:56:45Z</time>
      </trkpt>
      <trkpt lat="43.57255" lon="6.16107">
        <ele>408.7</ele>
        <time>2026-03-16T08:57:01Z</time>
      </trkpt>
      <trkpt lat="43.57255" lon="6.16094">
        <ele>409.4</ele>
        <time>2026-03-16T08:57:21Z</time>
      </trkpt>
      <trkpt lat="43.57262" lon="6.16085">
        <ele>410.1</ele>
        <time>2026-03-16T08:57:30Z</time>
      </trkpt>
      <trkpt lat="43.57268" lon="6.16075">
        <ele>410.9</ele>
        <time>2026-03-16T08:57:42Z</time>
      </trkpt>
      <trkpt lat="43.5726" lon="6.1608">
        <ele>411</ele>
        <time>2026-03-16T08:58:10Z</time>
      </trkpt>
      <trkpt lat="43.5727" lon="6.16073">
        <ele>412.8</ele>
        <time>2026-03-16T09:01:31Z</time>
      </trkpt>
      <trkpt lat="43.57277" lon="6.16065">
        <ele>413.3</ele>
        <time>2026-03-16T09:01:49Z</time>
      </trkpt>
      <trkpt lat="43.57287" lon="6.16061">
        <ele>414.3</ele>
        <time>2026-03-16T09:02:06Z</time>
      </trkpt>
      <trkpt lat="43.57297" lon="6.16051">
        <ele>414.8</ele>
        <time>2026-03-16T09:02:16Z</time>
      </trkpt>
      <trkpt lat="43.57303" lon="6.16042">
        <ele>415.8</ele>
        <time>2026-03-16T09:02:32Z</time>
      </trkpt>
      <trkpt lat="43.57309" lon="6.16032">
        <ele>416.7</ele>
        <time>2026-03-16T09:02:42Z</time>
      </trkpt>
      <trkpt lat="43.57317" lon="6.16025">
        <ele>417.1</ele>
        <time>2026-03-16T09:02:49Z</time>
      </trkpt>
      <trkpt lat="43.57325" lon="6.16018">
        <ele>417.5</ele>
        <time>2026-03-16T09:02:59Z</time>
      </trkpt>
      <trkpt lat="43.57333" lon="6.16009">
        <ele>417.9</ele>
        <time>2026-03-16T09:03:11Z</time>
      </trkpt>
      <trkpt lat="43.57341" lon="6.16002">
        <ele>418.3</ele>
        <time>2026-03-16T09:03:23Z</time>
      </trkpt>
      <trkpt lat="43.57349" lon="6.15997">
        <ele>418.6</ele>
        <time>2026-03-16T09:03:34Z</time>
      </trkpt>
      <trkpt lat="43.57357" lon="6.15991">
        <ele>418.4</ele>
        <time>2026-03-16T09:03:43Z</time>
      </trkpt>
      <trkpt lat="43.57366" lon="6.15986">
        <ele>418.1</ele>
        <time>2026-03-16T09:03:51Z</time>
      </trkpt>
      <trkpt lat="43.57375" lon="6.15982">
        <ele>417.9</ele>
        <time>2026-03-16T09:04:02Z</time>
      </trkpt>
      <trkpt lat="43.57384" lon="6.15984">
        <ele>417.9</ele>
        <time>2026-03-16T09:04:12Z</time>
      </trkpt>
      <trkpt lat="43.57394" lon="6.15987">
        <ele>418</ele>
        <time>2026-03-16T09:04:24Z</time>
      </trkpt>
      <trkpt lat="43.57403" lon="6.15991">
        <ele>418.1</ele>
        <time>2026-03-16T09:04:33Z</time>
      </trkpt>
      <trkpt lat="43.57412" lon="6.15994">
        <ele>418.3</ele>
        <time>2026-03-16T09:04:43Z</time>
      </trkpt>
      <trkpt lat="43.57421" lon="6.15997">
        <ele>418.8</ele>
        <time>2026-03-16T09:04:54Z</time>
      </trkpt>
      <trkpt lat="43.5743" lon="6.15995">
        <ele>419.1</ele>
        <time>2026-03-16T09:05:04Z</time>
      </trkpt>
      <trkpt lat="43.57439" lon="6.1599">
        <ele>419.3</ele>
        <time>2026-03-16T09:05:14Z</time>
      </trkpt>
      <trkpt lat="43.57447" lon="6.15985">
        <ele>419.7</ele>
        <time>2026-03-16T09:05:25Z</time>
      </trkpt>
      <trkpt lat="43.57451" lon="6.15973">
        <ele>419.9</ele>
        <time>2026-03-16T09:05:36Z</time>
      </trkpt>
      <trkpt lat="43.57452" lon="6.1596">
        <ele>420.1</ele>
        <time>2026-03-16T09:05:48Z</time>
      </trkpt>
      <trkpt lat="43.57451" lon="6.15947">
        <ele>420</ele>
        <time>2026-03-16T09:05:55Z</time>
      </trkpt>
      <trkpt lat="43.57451" lon="6.15934">
        <ele>420.2</ele>
        <time>2026-03-16T09:06:08Z</time>
      </trkpt>
      <trkpt lat="43.57453" lon="6.15921">
        <ele>420.3</ele>
        <time>2026-03-16T09:06:19Z</time>
      </trkpt>
      <trkpt lat="43.57457" lon="6.15909">
        <ele>420.4</ele>
        <time>2026-03-16T09:06:30Z</time>
      </trkpt>
      <trkpt lat="43.57463" lon="6.159">
        <ele>420.6</ele>
        <time>2026-03-16T09:06:40Z</time>
      </trkpt>
      <trkpt lat="43.57468" lon="6.15888">
        <ele>420.9</ele>
        <time>2026-03-16T09:06:50Z</time>
      </trkpt>
      <trkpt lat="43.57474" lon="6.15879">
        <ele>421.1</ele>
        <time>2026-03-16T09:06:59Z</time>
      </trkpt>
      <trkpt lat="43.57479" lon="6.15868">
        <ele>421.7</ele>
        <time>2026-03-16T09:07:46Z</time>
      </trkpt>
      <trkpt lat="43.57483" lon="6.15857">
        <ele>422</ele>
        <time>2026-03-16T09:07:59Z</time>
      </trkpt>
      <trkpt lat="43.5749" lon="6.15849">
        <ele>422.3</ele>
        <time>2026-03-16T09:08:11Z</time>
      </trkpt>
      <trkpt lat="43.57495" lon="6.15837">
        <ele>423.2</ele>
        <time>2026-03-16T09:08:34Z</time>
      </trkpt>
      <trkpt lat="43.57502" lon="6.1583">
        <ele>423.3</ele>
        <time>2026-03-16T09:08:44Z</time>
      </trkpt>
      <trkpt lat="43.57506" lon="6.15818">
        <ele>423.6</ele>
        <time>2026-03-16T09:08:53Z</time>
      </trkpt>
      <trkpt lat="43.57508" lon="6.15805">
        <ele>424.1</ele>
        <time>2026-03-16T09:09:06Z</time>
      </trkpt>
      <trkpt lat="43.57508" lon="6.15792">
        <ele>424.6</ele>
        <time>2026-03-16T09:09:18Z</time>
      </trkpt>
      <trkpt lat="43.57505" lon="6.1578">
        <ele>425</ele>
        <time>2026-03-16T09:09:31Z</time>
      </trkpt>
      <trkpt lat="43.57502" lon="6.15768">
        <ele>426.2</ele>
        <time>2026-03-16T09:09:57Z</time>
      </trkpt>
      <trkpt lat="43.57499" lon="6.15756">
        <ele>426.6</ele>
        <time>2026-03-16T09:10:45Z</time>
      </trkpt>
      <trkpt lat="43.57494" lon="6.15746">
        <ele>427.5</ele>
        <time>2026-03-16T09:10:58Z</time>
      </trkpt>
      <trkpt lat="43.57492" lon="6.15733">
        <ele>427.9</ele>
        <time>2026-03-16T09:11:10Z</time>
      </trkpt>
      <trkpt lat="43.57489" lon="6.15721">
        <ele>428.5</ele>
        <time>2026-03-16T09:11:21Z</time>
      </trkpt>
      <trkpt lat="43.57492" lon="6.15709">
        <ele>428.9</ele>
        <time>2026-03-16T09:11:41Z</time>
      </trkpt>
      <trkpt lat="43.57495" lon="6.15697">
        <ele>429.5</ele>
        <time>2026-03-16T09:12:31Z</time>
      </trkpt>
      <trkpt lat="43.57504" lon="6.15698">
        <ele>430.2</ele>
        <time>2026-03-16T09:13:01Z</time>
      </trkpt>
      <trkpt lat="43.57512" lon="6.15704">
        <ele>430.3</ele>
        <time>2026-03-16T09:14:04Z</time>
      </trkpt>
      <trkpt lat="43.57521" lon="6.15709">
        <ele>430.4</ele>
        <time>2026-03-16T09:14:24Z</time>
      </trkpt>
      <trkpt lat="43.57528" lon="6.15717">
        <ele>430.4</ele>
        <time>2026-03-16T09:14:34Z</time>
      </trkpt>
      <trkpt lat="43.57536" lon="6.15722">
        <ele>430.7</ele>
        <time>2026-03-16T09:14:54Z</time>
      </trkpt>
      <trkpt lat="43.57544" lon="6.15729">
        <ele>431</ele>
        <time>2026-03-16T09:15:04Z</time>
      </trkpt>
      <trkpt lat="43.57553" lon="6.15734">
        <ele>431.2</ele>
        <time>2026-03-16T09:15:17Z</time>
      </trkpt>
      <trkpt lat="43.57562" lon="6.15739">
        <ele>431.6</ele>
        <time>2026-03-16T09:15:29Z</time>
      </trkpt>
      <trkpt lat="43.5757" lon="6.15745">
        <ele>431.8</ele>
        <time>2026-03-16T09:15:39Z</time>
      </trkpt>
      <trkpt lat="43.5758" lon="6.15747">
        <ele>432.5</ele>
        <time>2026-03-16T09:15:51Z</time>
      </trkpt>
      <trkpt lat="43.5759" lon="6.15746">
        <ele>433</ele>
        <time>2026-03-16T09:16:02Z</time>
      </trkpt>
      <trkpt lat="43.57599" lon="6.15742">
        <ele>432.9</ele>
        <time>2026-03-16T09:16:13Z</time>
      </trkpt>
      <trkpt lat="43.57608" lon="6.15743">
        <ele>433.5</ele>
        <time>2026-03-16T09:16:24Z</time>
      </trkpt>
      <trkpt lat="43.57617" lon="6.15744">
        <ele>433.6</ele>
        <time>2026-03-16T09:16:49Z</time>
      </trkpt>
      <trkpt lat="43.57626" lon="6.1574">
        <ele>434.2</ele>
        <time>2026-03-16T09:17:01Z</time>
      </trkpt>
      <trkpt lat="43.57633" lon="6.15732">
        <ele>435.1</ele>
        <time>2026-03-16T09:17:16Z</time>
      </trkpt>
      <trkpt lat="43.5764" lon="6.15724">
        <ele>436.9</ele>
        <time>2026-03-16T09:17:37Z</time>
      </trkpt>
      <trkpt lat="43.57649" lon="6.1572">
        <ele>437.4</ele>
        <time>2026-03-16T09:17:52Z</time>
      </trkpt>
      <trkpt lat="43.57653" lon="6.15708">
        <ele>438.8</ele>
        <time>2026-03-16T09:18:18Z</time>
      </trkpt>
      <trkpt lat="43.57662" lon="6.15708">
        <ele>439.3</ele>
        <time>2026-03-16T09:18:34Z</time>
      </trkpt>
      <trkpt lat="43.57668" lon="6.15699">
        <ele>440.8</ele>
        <time>2026-03-16T09:19:34Z</time>
      </trkpt>
      <trkpt lat="43.57677" lon="6.15697">
        <ele>442.3</ele>
        <time>2026-03-16T09:19:49Z</time>
      </trkpt>
      <trkpt lat="43.57686" lon="6.15694">
        <ele>443.7</ele>
        <time>2026-03-16T09:20:04Z</time>
      </trkpt>
      <trkpt lat="43.57695" lon="6.15692">
        <ele>444.9</ele>
        <time>2026-03-16T09:20:17Z</time>
      </trkpt>
      <trkpt lat="43.57703" lon="6.15684">
        <ele>446.1</ele>
        <time>2026-03-16T09:20:32Z</time>
      </trkpt>
      <trkpt lat="43.57709" lon="6.15674">
        <ele>447.3</ele>
        <time>2026-03-16T09:20:46Z</time>
      </trkpt>
      <trkpt lat="43.57717" lon="6.15668">
        <ele>448.6</ele>
        <time>2026-03-16T09:20:57Z</time>
      </trkpt>
      <trkpt lat="43.57723" lon="6.15658">
        <ele>449.8</ele>
        <time>2026-03-16T09:21:08Z</time>
      </trkpt>
      <trkpt lat="43.57733" lon="6.15657">
        <ele>451.6</ele>
        <time>2026-03-16T09:21:22Z</time>
      </trkpt>
      <trkpt lat="43.57742" lon="6.15658">
        <ele>452.9</ele>
        <time>2026-03-16T09:21:36Z</time>
      </trkpt>
      <trkpt lat="43.57751" lon="6.15657">
        <ele>454.6</ele>
        <time>2026-03-16T09:21:51Z</time>
      </trkpt>
      <trkpt lat="43.5776" lon="6.15655">
        <ele>456.2</ele>
        <time>2026-03-16T09:22:03Z</time>
      </trkpt>
      <trkpt lat="43.57769" lon="6.15649">
        <ele>457.7</ele>
        <time>2026-03-16T09:22:15Z</time>
      </trkpt>
      <trkpt lat="43.57776" lon="6.15641">
        <ele>459.4</ele>
        <time>2026-03-16T09:22:29Z</time>
      </trkpt>
      <trkpt lat="43.57782" lon="6.15631">
        <ele>461</ele>
        <time>2026-03-16T09:22:41Z</time>
      </trkpt>
      <trkpt lat="43.57788" lon="6.15621">
        <ele>462.4</ele>
        <time>2026-03-16T09:22:55Z</time>
      </trkpt>
      <trkpt lat="43.5779" lon="6.15608">
        <ele>463.6</ele>
        <time>2026-03-16T09:23:07Z</time>
      </trkpt>
      <trkpt lat="43.57792" lon="6.15596">
        <ele>464.7</ele>
        <time>2026-03-16T09:23:17Z</time>
      </trkpt>
      <trkpt lat="43.57793" lon="6.15583">
        <ele>466</ele>
        <time>2026-03-16T09:23:29Z</time>
      </trkpt>
      <trkpt lat="43.57794" lon="6.15571">
        <ele>467.3</ele>
        <time>2026-03-16T09:23:42Z</time>
      </trkpt>
      <trkpt lat="43.57794" lon="6.15558">
        <ele>468.4</ele>
        <time>2026-03-16T09:23:55Z</time>
      </trkpt>
      <trkpt lat="43.57795" lon="6.15545">
        <ele>470.1</ele>
        <time>2026-03-16T09:24:08Z</time>
      </trkpt>
      <trkpt lat="43.57797" lon="6.15532">
        <ele>471.1</ele>
        <time>2026-03-16T09:24:21Z</time>
      </trkpt>
      <trkpt lat="43.57799" lon="6.1552">
        <ele>471.7</ele>
        <time>2026-03-16T09:24:33Z</time>
      </trkpt>
      <trkpt lat="43.57802" lon="6.15508">
        <ele>472.5</ele>
        <time>2026-03-16T09:24:44Z</time>
      </trkpt>
      <trkpt lat="43.57806" lon="6.15496">
        <ele>473.3</ele>
        <time>2026-03-16T09:25:00Z</time>
      </trkpt>
      <trkpt lat="43.57814" lon="6.15489">
        <ele>473.9</ele>
        <time>2026-03-16T09:25:24Z</time>
      </trkpt>
      <trkpt lat="43.57819" lon="6.15478">
        <ele>474</ele>
        <time>2026-03-16T09:25:36Z</time>
      </trkpt>
      <trkpt lat="43.5782" lon="6.15465">
        <ele>474.5</ele>
        <time>2026-03-16T09:25:47Z</time>
      </trkpt>
      <trkpt lat="43.57823" lon="6.15453">
        <ele>474.8</ele>
        <time>2026-03-16T09:25:58Z</time>
      </trkpt>
      <trkpt lat="43.57829" lon="6.15443">
        <ele>475.1</ele>
        <time>2026-03-16T09:26:10Z</time>
      </trkpt>
      <trkpt lat="43.57834" lon="6.15431">
        <ele>474.9</ele>
        <time>2026-03-16T09:26:22Z</time>
      </trkpt>
      <trkpt lat="43.57839" lon="6.15421">
        <ele>474.9</ele>
        <time>2026-03-16T09:27:07Z</time>
      </trkpt>
      <trkpt lat="43.57848" lon="6.15418">
        <ele>474.8</ele>
        <time>2026-03-16T09:28:35Z</time>
      </trkpt>
      <trkpt lat="43.57845" lon="6.15407">
        <ele>473</ele>
        <time>2026-03-16T09:32:34Z</time>
      </trkpt>
      <trkpt lat="43.57846" lon="6.15394">
        <ele>472.7</ele>
        <time>2026-03-16T09:32:45Z</time>
      </trkpt>
      <trkpt lat="43.57845" lon="6.15382">
        <ele>472.6</ele>
        <time>2026-03-16T09:33:03Z</time>
      </trkpt>
      <trkpt lat="43.57844" lon="6.15369">
        <ele>472.6</ele>
        <time>2026-03-16T09:33:19Z</time>
      </trkpt>
      <trkpt lat="43.57843" lon="6.15356">
        <ele>472.5</ele>
        <time>2026-03-16T09:33:30Z</time>
      </trkpt>
      <trkpt lat="43.57844" lon="6.15344">
        <ele>472.1</ele>
        <time>2026-03-16T09:33:44Z</time>
      </trkpt>
      <trkpt lat="43.57845" lon="6.15331">
        <ele>471.6</ele>
        <time>2026-03-16T09:33:55Z</time>
      </trkpt>
      <trkpt lat="43.57848" lon="6.15318">
        <ele>471.3</ele>
        <time>2026-03-16T09:34:05Z</time>
      </trkpt>
      <trkpt lat="43.57853" lon="6.15307">
        <ele>471</ele>
        <time>2026-03-16T09:34:18Z</time>
      </trkpt>
      <trkpt lat="43.57857" lon="6.15295">
        <ele>470.8</ele>
        <time>2026-03-16T09:34:29Z</time>
      </trkpt>
      <trkpt lat="43.57859" lon="6.15283">
        <ele>470.4</ele>
        <time>2026-03-16T09:34:41Z</time>
      </trkpt>
      <trkpt lat="43.57863" lon="6.15271">
        <ele>470.1</ele>
        <time>2026-03-16T09:34:52Z</time>
      </trkpt>
      <trkpt lat="43.57856" lon="6.15262">
        <ele>470.2</ele>
        <time>2026-03-16T09:35:05Z</time>
      </trkpt>
      <trkpt lat="43.57847" lon="6.15265">
        <ele>470.9</ele>
        <time>2026-03-16T09:35:34Z</time>
      </trkpt>
      <trkpt lat="43.57854" lon="6.15257">
        <ele>469.9</ele>
        <time>2026-03-16T09:36:16Z</time>
      </trkpt>
      <trkpt lat="43.5786" lon="6.15266">
        <ele>469.3</ele>
        <time>2026-03-16T09:36:28Z</time>
      </trkpt>
      <trkpt lat="43.5787" lon="6.15263">
        <ele>468.4</ele>
        <time>2026-03-16T09:36:50Z</time>
      </trkpt>
      <trkpt lat="43.57877" lon="6.15256">
        <ele>467.9</ele>
        <time>2026-03-16T09:37:01Z</time>
      </trkpt>
      <trkpt lat="43.5788" lon="6.15244">
        <ele>467.3</ele>
        <time>2026-03-16T09:37:16Z</time>
      </trkpt>
      <trkpt lat="43.57885" lon="6.15234">
        <ele>466.5</ele>
        <time>2026-03-16T09:37:55Z</time>
      </trkpt>
      <trkpt lat="43.5789" lon="6.15223">
        <ele>465.4</ele>
        <time>2026-03-16T09:38:14Z</time>
      </trkpt>
      <trkpt lat="43.57895" lon="6.15212">
        <ele>465.1</ele>
        <time>2026-03-16T09:38:27Z</time>
      </trkpt>
      <trkpt lat="43.57903" lon="6.15205">
        <ele>464.5</ele>
        <time>2026-03-16T09:38:42Z</time>
      </trkpt>
      <trkpt lat="43.57912" lon="6.15203">
        <ele>463.1</ele>
        <time>2026-03-16T09:39:03Z</time>
      </trkpt>
      <trkpt lat="43.57921" lon="6.15197">
        <ele>462.1</ele>
        <time>2026-03-16T09:39:16Z</time>
      </trkpt>
      <trkpt lat="43.5793" lon="6.15195">
        <ele>461</ele>
        <time>2026-03-16T09:39:26Z</time>
      </trkpt>
      <trkpt lat="43.57939" lon="6.15195">
        <ele>459.6</ele>
        <time>2026-03-16T09:39:42Z</time>
      </trkpt>
      <trkpt lat="43.57948" lon="6.15199">
        <ele>458</ele>
        <time>2026-03-16T09:39:54Z</time>
      </trkpt>
      <trkpt lat="43.57957" lon="6.15202">
        <ele>457.3</ele>
        <time>2026-03-16T09:40:31Z</time>
      </trkpt>
      <trkpt lat="43.57965" lon="6.15197">
        <ele>455.8</ele>
        <time>2026-03-16T09:40:50Z</time>
      </trkpt>
      <trkpt lat="43.57972" lon="6.15189">
        <ele>455</ele>
        <time>2026-03-16T09:41:08Z</time>
      </trkpt>
      <trkpt lat="43.57979" lon="6.15181">
        <ele>453.7</ele>
        <time>2026-03-16T09:41:30Z</time>
      </trkpt>
      <trkpt lat="43.57988" lon="6.15177">
        <ele>452.7</ele>
        <time>2026-03-16T09:41:43Z</time>
      </trkpt>
      <trkpt lat="43.57997" lon="6.15173">
        <ele>451.3</ele>
        <time>2026-03-16T09:41:56Z</time>
      </trkpt>
      <trkpt lat="43.58005" lon="6.15179">
        <ele>450.1</ele>
        <time>2026-03-16T09:42:10Z</time>
      </trkpt>
      <trkpt lat="43.58013" lon="6.15185">
        <ele>449.3</ele>
        <time>2026-03-16T09:42:22Z</time>
      </trkpt>
      <trkpt lat="43.58022" lon="6.15179">
        <ele>447.8</ele>
        <time>2026-03-16T09:42:58Z</time>
      </trkpt>
      <trkpt lat="43.58031" lon="6.15177">
        <ele>446.6</ele>
        <time>2026-03-16T09:43:28Z</time>
      </trkpt>
      <trkpt lat="43.58039" lon="6.15173">
        <ele>445.6</ele>
        <time>2026-03-16T09:43:44Z</time>
      </trkpt>
      <trkpt lat="43.58046" lon="6.15164">
        <ele>444.4</ele>
        <time>2026-03-16T09:44:00Z</time>
      </trkpt>
      <trkpt lat="43.58055" lon="6.15161">
        <ele>443.3</ele>
        <time>2026-03-16T09:44:13Z</time>
      </trkpt>
      <trkpt lat="43.58064" lon="6.15165">
        <ele>442.8</ele>
        <time>2026-03-16T09:44:25Z</time>
      </trkpt>
      <trkpt lat="43.58072" lon="6.15171">
        <ele>441.9</ele>
        <time>2026-03-16T09:44:43Z</time>
      </trkpt>
      <trkpt lat="43.5808" lon="6.15176">
        <ele>441.6</ele>
        <time>2026-03-16T09:44:59Z</time>
      </trkpt>
      <trkpt lat="43.5809" lon="6.15175">
        <ele>441.9</ele>
        <time>2026-03-16T09:45:12Z</time>
      </trkpt>
      <trkpt lat="43.58099" lon="6.15176">
        <ele>442.3</ele>
        <time>2026-03-16T09:45:26Z</time>
      </trkpt>
      <trkpt lat="43.58108" lon="6.15179">
        <ele>442.3</ele>
        <time>2026-03-16T09:45:36Z</time>
      </trkpt>
      <trkpt lat="43.58117" lon="6.15178">
        <ele>441.4</ele>
        <time>2026-03-16T09:46:21Z</time>
      </trkpt>
      <trkpt lat="43.58123" lon="6.15168">
        <ele>439.7</ele>
        <time>2026-03-16T09:48:07Z</time>
      </trkpt>
      <trkpt lat="43.58129" lon="6.15157">
        <ele>439.5</ele>
        <time>2026-03-16T09:48:21Z</time>
      </trkpt>
      <trkpt lat="43.58132" lon="6.15146">
        <ele>438</ele>
        <time>2026-03-16T09:50:05Z</time>
      </trkpt>
      <trkpt lat="43.58133" lon="6.15133">
        <ele>437.1</ele>
        <time>2026-03-16T09:50:18Z</time>
      </trkpt>
      <trkpt lat="43.58136" lon="6.15121">
        <ele>436.2</ele>
        <time>2026-03-16T09:50:35Z</time>
      </trkpt>
      <trkpt lat="43.58138" lon="6.15108">
        <ele>434.9</ele>
        <time>2026-03-16T09:50:56Z</time>
      </trkpt>
      <trkpt lat="43.58137" lon="6.15096">
        <ele>433.7</ele>
        <time>2026-03-16T09:51:14Z</time>
      </trkpt>
      <trkpt lat="43.58139" lon="6.15084">
        <ele>432.4</ele>
        <time>2026-03-16T09:51:36Z</time>
      </trkpt>
      <trkpt lat="43.58142" lon="6.15072">
        <ele>429.8</ele>
        <time>2026-03-16T09:52:02Z</time>
      </trkpt>
      <trkpt lat="43.58146" lon="6.1506">
        <ele>428.3</ele>
        <time>2026-03-16T09:52:19Z</time>
      </trkpt>
      <trkpt lat="43.58147" lon="6.15047">
        <ele>426.9</ele>
        <time>2026-03-16T09:52:35Z</time>
      </trkpt>
      <trkpt lat="43.58147" lon="6.15034">
        <ele>425.7</ele>
        <time>2026-03-16T09:52:49Z</time>
      </trkpt>
      <trkpt lat="43.58143" lon="6.15022">
        <ele>424</ele>
        <time>2026-03-16T09:53:06Z</time>
      </trkpt>
      <trkpt lat="43.58147" lon="6.15009">
        <ele>421.9</ele>
        <time>2026-03-16T09:53:23Z</time>
      </trkpt>
      <trkpt lat="43.5815" lon="6.14996">
        <ele>420.7</ele>
        <time>2026-03-16T09:53:36Z</time>
      </trkpt>
      <trkpt lat="43.58151" lon="6.14983">
        <ele>419.2</ele>
        <time>2026-03-16T09:53:52Z</time>
      </trkpt>
      <trkpt lat="43.58155" lon="6.14972">
        <ele>418.4</ele>
        <time>2026-03-16T09:54:08Z</time>
      </trkpt>
      <trkpt lat="43.58156" lon="6.14959">
        <ele>419.4</ele>
        <time>2026-03-16T09:54:23Z</time>
      </trkpt>
      <trkpt lat="43.58161" lon="6.14949">
        <ele>420.3</ele>
        <time>2026-03-16T09:54:42Z</time>
      </trkpt>
      <trkpt lat="43.58158" lon="6.14937">
        <ele>420.8</ele>
        <time>2026-03-16T09:54:52Z</time>
      </trkpt>
      <trkpt lat="43.5816" lon="6.14924">
        <ele>421.7</ele>
        <time>2026-03-16T09:55:10Z</time>
      </trkpt>
      <trkpt lat="43.58159" lon="6.14912">
        <ele>422.5</ele>
        <time>2026-03-16T09:55:37Z</time>
      </trkpt>
      <trkpt lat="43.58162" lon="6.149">
        <ele>423.7</ele>
        <time>2026-03-16T09:55:57Z</time>
      </trkpt>
      <trkpt lat="43.58165" lon="6.14887">
        <ele>424.8</ele>
        <time>2026-03-16T09:56:13Z</time>
      </trkpt>
      <trkpt lat="43.58165" lon="6.14874">
        <ele>425.8</ele>
        <time>2026-03-16T09:56:37Z</time>
      </trkpt>
      <trkpt lat="43.58167" lon="6.14862">
        <ele>427.4</ele>
        <time>2026-03-16T09:56:55Z</time>
      </trkpt>
      <trkpt lat="43.5817" lon="6.1485">
        <ele>428.2</ele>
        <time>2026-03-16T09:57:26Z</time>
      </trkpt>
      <trkpt lat="43.58177" lon="6.14841">
        <ele>425.3</ele>
        <time>2026-03-16T10:01:07Z</time>
      </trkpt>
      <trkpt lat="43.58175" lon="6.14829">
        <ele>426</ele>
        <time>2026-03-16T10:02:01Z</time>
      </trkpt>
      <trkpt lat="43.58177" lon="6.14816">
        <ele>426.7</ele>
        <time>2026-03-16T10:02:35Z</time>
      </trkpt>
      <trkpt lat="43.5818" lon="6.14804">
        <ele>427.1</ele>
        <time>2026-03-16T10:02:55Z</time>
      </trkpt>
      <trkpt lat="43.58184" lon="6.14792">
        <ele>428.1</ele>
        <time>2026-03-16T10:03:31Z</time>
      </trkpt>
      <trkpt lat="43.58182" lon="6.1478">
        <ele>428.2</ele>
        <time>2026-03-16T10:03:44Z</time>
      </trkpt>
      <trkpt lat="43.5818" lon="6.14768">
        <ele>430.1</ele>
        <time>2026-03-16T10:04:07Z</time>
      </trkpt>
      <trkpt lat="43.58178" lon="6.14755">
        <ele>431.3</ele>
        <time>2026-03-16T10:04:27Z</time>
      </trkpt>
      <trkpt lat="43.58181" lon="6.14743">
        <ele>432.5</ele>
        <time>2026-03-16T10:04:51Z</time>
      </trkpt>
      <trkpt lat="43.58182" lon="6.14731">
        <ele>432.9</ele>
        <time>2026-03-16T10:05:15Z</time>
      </trkpt>
      <trkpt lat="43.58186" lon="6.14719">
        <ele>432.8</ele>
        <time>2026-03-16T10:05:29Z</time>
      </trkpt>
      <trkpt lat="43.58189" lon="6.14707">
        <ele>432</ele>
        <time>2026-03-16T10:05:46Z</time>
      </trkpt>
      <trkpt lat="43.58192" lon="6.14695">
        <ele>431.6</ele>
        <time>2026-03-16T10:06:03Z</time>
      </trkpt>
      <trkpt lat="43.58197" lon="6.14684">
        <ele>431.4</ele>
        <time>2026-03-16T10:06:17Z</time>
      </trkpt>
      <trkpt lat="43.58199" lon="6.14671">
        <ele>431.9</ele>
        <time>2026-03-16T10:06:36Z</time>
      </trkpt>
      <trkpt lat="43.58201" lon="6.14659">
        <ele>433.2</ele>
        <time>2026-03-16T10:06:56Z</time>
      </trkpt>
      <trkpt lat="43.58204" lon="6.14648">
        <ele>434.5</ele>
        <time>2026-03-16T10:07:24Z</time>
      </trkpt>
      <trkpt lat="43.58208" lon="6.14636">
        <ele>435.2</ele>
        <time>2026-03-16T10:08:05Z</time>
      </trkpt>
      <trkpt lat="43.58208" lon="6.14623">
        <ele>436.2</ele>
        <time>2026-03-16T10:08:24Z</time>
      </trkpt>
      <trkpt lat="43.5821" lon="6.14611">
        <ele>437</ele>
        <time>2026-03-16T10:08:46Z</time>
      </trkpt>
      <trkpt lat="43.58211" lon="6.14598">
        <ele>437</ele>
        <time>2026-03-16T10:09:08Z</time>
      </trkpt>
      <trkpt lat="43.58209" lon="6.14585">
        <ele>437.5</ele>
        <time>2026-03-16T10:09:34Z</time>
      </trkpt>
      <trkpt lat="43.58214" lon="6.14575">
        <ele>437.6</ele>
        <time>2026-03-16T10:09:54Z</time>
      </trkpt>
      <trkpt lat="43.58216" lon="6.14562">
        <ele>438.1</ele>
        <time>2026-03-16T10:10:20Z</time>
      </trkpt>
      <trkpt lat="43.58218" lon="6.1455">
        <ele>438</ele>
        <time>2026-03-16T10:10:39Z</time>
      </trkpt>
      <trkpt lat="43.58214" lon="6.14539">
        <ele>439.3</ele>
        <time>2026-03-16T10:11:00Z</time>
      </trkpt>
      <trkpt lat="43.58219" lon="6.14529">
        <ele>439.2</ele>
        <time>2026-03-16T10:11:22Z</time>
      </trkpt>
      <trkpt lat="43.58222" lon="6.14517">
        <ele>439.5</ele>
        <time>2026-03-16T10:11:45Z</time>
      </trkpt>
      <trkpt lat="43.58224" lon="6.14505">
        <ele>439.7</ele>
        <time>2026-03-16T10:11:59Z</time>
      </trkpt>
      <trkpt lat="43.58229" lon="6.14494">
        <ele>439.9</ele>
        <time>2026-03-16T10:12:35Z</time>
      </trkpt>
      <trkpt lat="43.58239" lon="6.14493">
        <ele>439.7</ele>
        <time>2026-03-16T10:12:54Z</time>
      </trkpt>
      <trkpt lat="43.58248" lon="6.14494">
        <ele>439.4</ele>
        <time>2026-03-16T10:13:08Z</time>
      </trkpt>
      <trkpt lat="43.58257" lon="6.14498">
        <ele>439</ele>
        <time>2026-03-16T10:13:27Z</time>
      </trkpt>
      <trkpt lat="43.58266" lon="6.14498">
        <ele>438.6</ele>
        <time>2026-03-16T10:13:42Z</time>
      </trkpt>
      <trkpt lat="43.58275" lon="6.14499">
        <ele>438.2</ele>
        <time>2026-03-16T10:13:59Z</time>
      </trkpt>
      <trkpt lat="43.58283" lon="6.14494">
        <ele>437.3</ele>
        <time>2026-03-16T10:15:30Z</time>
      </trkpt>
      <trkpt lat="43.58291" lon="6.14485">
        <ele>437.4</ele>
        <time>2026-03-16T10:15:41Z</time>
      </trkpt>
      <trkpt lat="43.58296" lon="6.14473">
        <ele>437.4</ele>
        <time>2026-03-16T10:15:51Z</time>
      </trkpt>
      <trkpt lat="43.58298" lon="6.1446">
        <ele>437.2</ele>
        <time>2026-03-16T10:16:03Z</time>
      </trkpt>
      <trkpt lat="43.58304" lon="6.1445">
        <ele>437.3</ele>
        <time>2026-03-16T10:16:16Z</time>
      </trkpt>
      <trkpt lat="43.5831" lon="6.1444">
        <ele>437.2</ele>
        <time>2026-03-16T10:16:27Z</time>
      </trkpt>
      <trkpt lat="43.58316" lon="6.1443">
        <ele>437</ele>
        <time>2026-03-16T10:16:41Z</time>
      </trkpt>
      <trkpt lat="43.5832" lon="6.14418">
        <ele>436.9</ele>
        <time>2026-03-16T10:17:15Z</time>
      </trkpt>
      <trkpt lat="43.58326" lon="6.14408">
        <ele>436.3</ele>
        <time>2026-03-16T10:17:58Z</time>
      </trkpt>
      <trkpt lat="43.58332" lon="6.14398">
        <ele>436.2</ele>
        <time>2026-03-16T10:18:11Z</time>
      </trkpt>
      <trkpt lat="43.58333" lon="6.14385">
        <ele>436.3</ele>
        <time>2026-03-16T10:18:35Z</time>
      </trkpt>
      <trkpt lat="43.58341" lon="6.14378">
        <ele>435.8</ele>
        <time>2026-03-16T10:18:58Z</time>
      </trkpt>
      <trkpt lat="43.58349" lon="6.14373">
        <ele>435.2</ele>
        <time>2026-03-16T10:19:07Z</time>
      </trkpt>
      <trkpt lat="43.58356" lon="6.14365">
        <ele>434.8</ele>
        <time>2026-03-16T10:19:16Z</time>
      </trkpt>
      <trkpt lat="43.58363" lon="6.14356">
        <ele>434.5</ele>
        <time>2026-03-16T10:19:29Z</time>
      </trkpt>
      <trkpt lat="43.58372" lon="6.14353">
        <ele>434.5</ele>
        <time>2026-03-16T10:21:27Z</time>
      </trkpt>
      <trkpt lat="43.58375" lon="6.14364">
        <ele>433</ele>
        <time>2026-03-16T10:22:22Z</time>
      </trkpt>
      <trkpt lat="43.58374" lon="6.14377">
        <ele>431.3</ele>
        <time>2026-03-16T10:24:37Z</time>
      </trkpt>
      <trkpt lat="43.58374" lon="6.14391">
        <ele>429.5</ele>
        <time>2026-03-16T10:25:04Z</time>
      </trkpt>
      <trkpt lat="43.58383" lon="6.14396">
        <ele>425.7</ele>
        <time>2026-03-16T10:25:43Z</time>
      </trkpt>
      <trkpt lat="43.5839" lon="6.14388">
        <ele>423.5</ele>
        <time>2026-03-16T10:26:16Z</time>
      </trkpt>
      <trkpt lat="43.58398" lon="6.1438">
        <ele>420.9</ele>
        <time>2026-03-16T10:26:45Z</time>
      </trkpt>
      <trkpt lat="43.58404" lon="6.1437">
        <ele>418.1</ele>
        <time>2026-03-16T10:27:23Z</time>
      </trkpt>
      <trkpt lat="43.58413" lon="6.14367">
        <ele>416.3</ele>
        <time>2026-03-16T10:27:43Z</time>
      </trkpt>
      <trkpt lat="43.58418" lon="6.14378">
        <ele>414.1</ele>
        <time>2026-03-16T10:28:12Z</time>
      </trkpt>
      <trkpt lat="43.58421" lon="6.14391">
        <ele>412</ele>
        <time>2026-03-16T10:28:34Z</time>
      </trkpt>
      <trkpt lat="43.58426" lon="6.14402">
        <ele>409.9</ele>
        <time>2026-03-16T10:28:51Z</time>
      </trkpt>
      <trkpt lat="43.58428" lon="6.14415">
        <ele>408.2</ele>
        <time>2026-03-16T10:29:06Z</time>
      </trkpt>
      <trkpt lat="43.58432" lon="6.14426">
        <ele>407.4</ele>
        <time>2026-03-16T10:29:25Z</time>
      </trkpt>
      <trkpt lat="43.58435" lon="6.14438">
        <ele>406.4</ele>
        <time>2026-03-16T10:29:38Z</time>
      </trkpt>
      <trkpt lat="43.58438" lon="6.14451">
        <ele>405</ele>
        <time>2026-03-16T10:29:54Z</time>
      </trkpt>
      <trkpt lat="43.58442" lon="6.14463">
        <ele>404</ele>
        <time>2026-03-16T10:30:09Z</time>
      </trkpt>
      <trkpt lat="43.58446" lon="6.14474">
        <ele>403.1</ele>
        <time>2026-03-16T10:30:22Z</time>
      </trkpt>
      <trkpt lat="43.58447" lon="6.14487">
        <ele>401.9</ele>
        <time>2026-03-16T10:30:36Z</time>
      </trkpt>
      <trkpt lat="43.58455" lon="6.14493">
        <ele>402.6</ele>
        <time>2026-03-16T10:33:05Z</time>
      </trkpt>
      <trkpt lat="43.58462" lon="6.14502">
        <ele>401.4</ele>
        <time>2026-03-16T10:33:26Z</time>
      </trkpt>
      <trkpt lat="43.58469" lon="6.14493">
        <ele>400.6</ele>
        <time>2026-03-16T10:33:59Z</time>
      </trkpt>
      <trkpt lat="43.58476" lon="6.14484">
        <ele>400.2</ele>
        <time>2026-03-16T10:34:16Z</time>
      </trkpt>
      <trkpt lat="43.58481" lon="6.14474">
        <ele>400.2</ele>
        <time>2026-03-16T10:34:34Z</time>
      </trkpt>
      <trkpt lat="43.58486" lon="6.14463">
        <ele>400.2</ele>
        <time>2026-03-16T10:34:54Z</time>
      </trkpt>
      <trkpt lat="43.58493" lon="6.14454">
        <ele>399.9</ele>
        <time>2026-03-16T10:35:02Z</time>
      </trkpt>
      <trkpt lat="43.58499" lon="6.14445">
        <ele>399.3</ele>
        <time>2026-03-16T10:35:12Z</time>
      </trkpt>
      <trkpt lat="43.58494" lon="6.14434">
        <ele>399.3</ele>
        <time>2026-03-16T10:35:24Z</time>
      </trkpt>
      <trkpt lat="43.58496" lon="6.14421">
        <ele>400.3</ele>
        <time>2026-03-16T10:36:14Z</time>
      </trkpt>
      <trkpt lat="43.58493" lon="6.1441">
        <ele>400.6</ele>
        <time>2026-03-16T10:37:32Z</time>
      </trkpt>
      <trkpt lat="43.58496" lon="6.14398">
        <ele>400.5</ele>
        <time>2026-03-16T10:37:46Z</time>
      </trkpt>
      <trkpt lat="43.58499" lon="6.14386">
        <ele>400</ele>
        <time>2026-03-16T10:38:00Z</time>
      </trkpt>
      <trkpt lat="43.585" lon="6.14373">
        <ele>399.8</ele>
        <time>2026-03-16T10:38:12Z</time>
      </trkpt>
      <trkpt lat="43.58503" lon="6.1436">
        <ele>399.5</ele>
        <time>2026-03-16T10:38:22Z</time>
      </trkpt>
      <trkpt lat="43.58506" lon="6.14347">
        <ele>398.8</ele>
        <time>2026-03-16T10:38:36Z</time>
      </trkpt>
      <trkpt lat="43.58508" lon="6.14334">
        <ele>398.8</ele>
        <time>2026-03-16T10:38:51Z</time>
      </trkpt>
      <trkpt lat="43.58511" lon="6.14321">
        <ele>399</ele>
        <time>2026-03-16T10:39:00Z</time>
      </trkpt>
      <trkpt lat="43.58513" lon="6.14308">
        <ele>398.7</ele>
        <time>2026-03-16T10:39:09Z</time>
      </trkpt>
      <trkpt lat="43.58514" lon="6.14295">
        <ele>398.2</ele>
        <time>2026-03-16T10:39:20Z</time>
      </trkpt>
      <trkpt lat="43.58516" lon="6.14283">
        <ele>398.2</ele>
        <time>2026-03-16T10:39:31Z</time>
      </trkpt>
      <trkpt lat="43.58518" lon="6.14271">
        <ele>397.9</ele>
        <time>2026-03-16T10:39:48Z</time>
      </trkpt>
      <trkpt lat="43.58518" lon="6.14258">
        <ele>398.2</ele>
        <time>2026-03-16T10:40:08Z</time>
      </trkpt>
      <trkpt lat="43.58519" lon="6.14245">
        <ele>398.5</ele>
        <time>2026-03-16T10:40:45Z</time>
      </trkpt>
      <trkpt lat="43.58521" lon="6.14233">
        <ele>398.9</ele>
        <time>2026-03-16T10:41:30Z</time>
      </trkpt>
      <trkpt lat="43.58522" lon="6.14221">
        <ele>399.3</ele>
        <time>2026-03-16T10:41:40Z</time>
      </trkpt>
      <trkpt lat="43.58524" lon="6.14208">
        <ele>400.1</ele>
        <time>2026-03-16T10:41:50Z</time>
      </trkpt>
      <trkpt lat="43.58521" lon="6.14196">
        <ele>400.9</ele>
        <time>2026-03-16T10:42:00Z</time>
      </trkpt>
      <trkpt lat="43.58519" lon="6.14183">
        <ele>402.4</ele>
        <time>2026-03-16T10:42:13Z</time>
      </trkpt>
      <trkpt lat="43.58515" lon="6.14171">
        <ele>404</ele>
        <time>2026-03-16T10:42:26Z</time>
      </trkpt>
      <trkpt lat="43.58516" lon="6.14158">
        <ele>405.9</ele>
        <time>2026-03-16T10:42:38Z</time>
      </trkpt>
      <trkpt lat="43.58522" lon="6.14148">
        <ele>405.3</ele>
        <time>2026-03-16T10:42:48Z</time>
      </trkpt>
      <trkpt lat="43.58529" lon="6.14141">
        <ele>405.3</ele>
        <time>2026-03-16T10:42:58Z</time>
      </trkpt>
      <trkpt lat="43.58538" lon="6.14134">
        <ele>405.1</ele>
        <time>2026-03-16T10:43:08Z</time>
      </trkpt>
      <trkpt lat="43.58547" lon="6.1413">
        <ele>405</ele>
        <time>2026-03-16T10:43:20Z</time>
      </trkpt>
      <trkpt lat="43.58554" lon="6.14122">
        <ele>404.7</ele>
        <time>2026-03-16T10:43:31Z</time>
      </trkpt>
      <trkpt lat="43.58562" lon="6.14113">
        <ele>404.9</ele>
        <time>2026-03-16T10:43:42Z</time>
      </trkpt>
      <trkpt lat="43.5857" lon="6.14107">
        <ele>404.3</ele>
        <time>2026-03-16T10:43:51Z</time>
      </trkpt>
      <trkpt lat="43.58577" lon="6.14098">
        <ele>403.7</ele>
        <time>2026-03-16T10:44:02Z</time>
      </trkpt>
      <trkpt lat="43.58584" lon="6.1409">
        <ele>402.8</ele>
        <time>2026-03-16T10:44:12Z</time>
      </trkpt>
      <trkpt lat="43.58592" lon="6.14082">
        <ele>402.7</ele>
        <time>2026-03-16T10:44:21Z</time>
      </trkpt>
      <trkpt lat="43.58598" lon="6.14073">
        <ele>402.9</ele>
        <time>2026-03-16T10:44:30Z</time>
      </trkpt>
      <trkpt lat="43.58604" lon="6.14063">
        <ele>402.9</ele>
        <time>2026-03-16T10:44:39Z</time>
      </trkpt>
      <trkpt lat="43.5861" lon="6.14054">
        <ele>402.4</ele>
        <time>2026-03-16T10:44:48Z</time>
      </trkpt>
      <trkpt lat="43.58616" lon="6.14045">
        <ele>402.3</ele>
        <time>2026-03-16T10:44:59Z</time>
      </trkpt>
      <trkpt lat="43.58622" lon="6.14035">
        <ele>402.3</ele>
        <time>2026-03-16T10:45:11Z</time>
      </trkpt>
      <trkpt lat="43.58629" lon="6.14025">
        <ele>402.3</ele>
        <time>2026-03-16T10:45:27Z</time>
      </trkpt>
      <trkpt lat="43.58634" lon="6.14015">
        <ele>402.1</ele>
        <time>2026-03-16T10:45:35Z</time>
      </trkpt>
      <trkpt lat="43.5864" lon="6.14005">
        <ele>402.4</ele>
        <time>2026-03-16T10:45:44Z</time>
      </trkpt>
      <trkpt lat="43.58648" lon="6.13996">
        <ele>401.9</ele>
        <time>2026-03-16T10:45:53Z</time>
      </trkpt>
      <trkpt lat="43.58655" lon="6.13987">
        <ele>401.1</ele>
        <time>2026-03-16T10:46:09Z</time>
      </trkpt>
      <trkpt lat="43.58661" lon="6.13976">
        <ele>400.9</ele>
        <time>2026-03-16T10:46:19Z</time>
      </trkpt>
      <trkpt lat="43.58667" lon="6.13967">
        <ele>401</ele>
        <time>2026-03-16T10:46:28Z</time>
      </trkpt>
      <trkpt lat="43.58674" lon="6.13958">
        <ele>401.1</ele>
        <time>2026-03-16T10:46:39Z</time>
      </trkpt>
      <trkpt lat="43.58683" lon="6.13954">
        <ele>401.1</ele>
        <time>2026-03-16T10:46:52Z</time>
      </trkpt>
      <trkpt lat="43.58692" lon="6.13953">
        <ele>402.2</ele>
        <time>2026-03-16T10:47:47Z</time>
      </trkpt>
      <trkpt lat="43.58699" lon="6.13946">
        <ele>402.1</ele>
        <time>2026-03-16T10:51:13Z</time>
      </trkpt>
      <trkpt lat="43.58707" lon="6.13939">
        <ele>402.6</ele>
        <time>2026-03-16T10:51:36Z</time>
      </trkpt>
      <trkpt lat="43.58714" lon="6.1393">
        <ele>402.3</ele>
        <time>2026-03-16T10:51:59Z</time>
      </trkpt>
      <trkpt lat="43.58722" lon="6.13927">
        <ele>402.5</ele>
        <time>2026-03-16T10:52:12Z</time>
      </trkpt>
      <trkpt lat="43.58732" lon="6.13923">
        <ele>402.9</ele>
        <time>2026-03-16T10:52:34Z</time>
      </trkpt>
      <trkpt lat="43.58741" lon="6.13922">
        <ele>402.5</ele>
        <time>2026-03-16T10:52:44Z</time>
      </trkpt>
      <trkpt lat="43.5875" lon="6.13923">
        <ele>403.8</ele>
        <time>2026-03-16T10:53:03Z</time>
      </trkpt>
      <trkpt lat="43.58759" lon="6.1392">
        <ele>404.1</ele>
        <time>2026-03-16T10:53:16Z</time>
      </trkpt>
      <trkpt lat="43.58768" lon="6.13916">
        <ele>404</ele>
        <time>2026-03-16T10:53:26Z</time>
      </trkpt>
      <trkpt lat="43.58777" lon="6.13908">
        <ele>403.6</ele>
        <time>2026-03-16T10:53:39Z</time>
      </trkpt>
      <trkpt lat="43.58783" lon="6.13898">
        <ele>403.9</ele>
        <time>2026-03-16T10:53:48Z</time>
      </trkpt>
      <trkpt lat="43.5879" lon="6.13888">
        <ele>403.6</ele>
        <time>2026-03-16T10:53:57Z</time>
      </trkpt>
      <trkpt lat="43.58796" lon="6.13879">
        <ele>403.6</ele>
        <time>2026-03-16T10:54:06Z</time>
      </trkpt>
      <trkpt lat="43.58796" lon="6.13866">
        <ele>403.7</ele>
        <time>2026-03-16T10:54:17Z</time>
      </trkpt>
      <trkpt lat="43.588" lon="6.13854">
        <ele>403.2</ele>
        <time>2026-03-16T10:54:30Z</time>
      </trkpt>
      <trkpt lat="43.58805" lon="6.13843">
        <ele>402.3</ele>
        <time>2026-03-16T10:54:39Z</time>
      </trkpt>
      <trkpt lat="43.58811" lon="6.13832">
        <ele>401.2</ele>
        <time>2026-03-16T10:54:48Z</time>
      </trkpt>
      <trkpt lat="43.58815" lon="6.13821">
        <ele>400.7</ele>
        <time>2026-03-16T10:54:56Z</time>
      </trkpt>
      <trkpt lat="43.5882" lon="6.1381">
        <ele>400.2</ele>
        <time>2026-03-16T10:55:05Z</time>
      </trkpt>
      <trkpt lat="43.58826" lon="6.138">
        <ele>399.8</ele>
        <time>2026-03-16T10:55:14Z</time>
      </trkpt>
      <trkpt lat="43.58834" lon="6.13793">
        <ele>398.3</ele>
        <time>2026-03-16T10:55:27Z</time>
      </trkpt>
      <trkpt lat="43.58843" lon="6.13787">
        <ele>397.8</ele>
        <time>2026-03-16T10:55:38Z</time>
      </trkpt>
      <trkpt lat="43.58852" lon="6.13783">
        <ele>397.6</ele>
        <time>2026-03-16T10:55:49Z</time>
      </trkpt>
      <trkpt lat="43.5886" lon="6.13777">
        <ele>397</ele>
        <time>2026-03-16T10:56:04Z</time>
      </trkpt>
      <trkpt lat="43.58869" lon="6.13774">
        <ele>396.5</ele>
        <time>2026-03-16T10:56:16Z</time>
      </trkpt>
      <trkpt lat="43.58879" lon="6.13771">
        <ele>395.2</ele>
        <time>2026-03-16T10:56:25Z</time>
      </trkpt>
      <trkpt lat="43.58888" lon="6.13768">
        <ele>394.2</ele>
        <time>2026-03-16T10:56:35Z</time>
      </trkpt>
      <trkpt lat="43.58898" lon="6.13764">
        <ele>393.6</ele>
        <time>2026-03-16T10:56:47Z</time>
      </trkpt>
      <trkpt lat="43.58907" lon="6.13762">
        <ele>392.6</ele>
        <time>2026-03-16T10:56:57Z</time>
      </trkpt>
      <trkpt lat="43.58917" lon="6.13762">
        <ele>392.2</ele>
        <time>2026-03-16T10:57:08Z</time>
      </trkpt>
      <trkpt lat="43.58926" lon="6.13762">
        <ele>391.2</ele>
        <time>2026-03-16T10:57:19Z</time>
      </trkpt>
      <trkpt lat="43.58934" lon="6.13767">
        <ele>391.1</ele>
        <time>2026-03-16T10:57:28Z</time>
      </trkpt>
      <trkpt lat="43.58944" lon="6.1377">
        <ele>390.1</ele>
        <time>2026-03-16T10:57:44Z</time>
      </trkpt>
      <trkpt lat="43.58952" lon="6.13773">
        <ele>389.4</ele>
        <time>2026-03-16T10:57:53Z</time>
      </trkpt>
      <trkpt lat="43.58961" lon="6.13776">
        <ele>389.3</ele>
        <time>2026-03-16T10:58:02Z</time>
      </trkpt>
      <trkpt lat="43.5897" lon="6.13778">
        <ele>389.2</ele>
        <time>2026-03-16T10:58:11Z</time>
      </trkpt>
      <trkpt lat="43.5898" lon="6.13779">
        <ele>388.6</ele>
        <time>2026-03-16T10:58:21Z</time>
      </trkpt>
      <trkpt lat="43.5899" lon="6.13782">
        <ele>388.2</ele>
        <time>2026-03-16T10:58:33Z</time>
      </trkpt>
      <trkpt lat="43.58999" lon="6.13786">
        <ele>387.7</ele>
        <time>2026-03-16T10:58:48Z</time>
      </trkpt>
      <trkpt lat="43.59008" lon="6.13791">
        <ele>387.9</ele>
        <time>2026-03-16T10:58:58Z</time>
      </trkpt>
      <trkpt lat="43.59016" lon="6.13797">
        <ele>387.6</ele>
        <time>2026-03-16T10:59:19Z</time>
      </trkpt>
      <trkpt lat="43.59025" lon="6.13801">
        <ele>387.8</ele>
        <time>2026-03-16T10:59:30Z</time>
      </trkpt>
      <trkpt lat="43.59034" lon="6.13806">
        <ele>387.5</ele>
        <time>2026-03-16T10:59:42Z</time>
      </trkpt>
      <trkpt lat="43.59042" lon="6.1381">
        <ele>387.5</ele>
        <time>2026-03-16T10:59:54Z</time>
      </trkpt>
      <trkpt lat="43.59052" lon="6.13815">
        <ele>387.5</ele>
        <time>2026-03-16T11:00:06Z</time>
      </trkpt>
      <trkpt lat="43.59058" lon="6.13826">
        <ele>387.4</ele>
        <time>2026-03-16T11:00:18Z</time>
      </trkpt>
      <trkpt lat="43.59063" lon="6.13837">
        <ele>387.6</ele>
        <time>2026-03-16T11:00:29Z</time>
      </trkpt>
      <trkpt lat="43.59068" lon="6.13848">
        <ele>387.6</ele>
        <time>2026-03-16T11:00:44Z</time>
      </trkpt>
      <trkpt lat="43.59072" lon="6.1386">
        <ele>387.9</ele>
        <time>2026-03-16T11:00:53Z</time>
      </trkpt>
      <trkpt lat="43.59075" lon="6.13872">
        <ele>388.1</ele>
        <time>2026-03-16T11:01:03Z</time>
      </trkpt>
      <trkpt lat="43.59078" lon="6.13884">
        <ele>388.3</ele>
        <time>2026-03-16T11:01:12Z</time>
      </trkpt>
      <trkpt lat="43.59081" lon="6.13897">
        <ele>388.7</ele>
        <time>2026-03-16T11:01:22Z</time>
      </trkpt>
      <trkpt lat="43.59082" lon="6.1391">
        <ele>388.3</ele>
        <time>2026-03-16T11:01:35Z</time>
      </trkpt>
      <trkpt lat="43.59083" lon="6.13923">
        <ele>387.7</ele>
        <time>2026-03-16T11:01:45Z</time>
      </trkpt>
      <trkpt lat="43.59085" lon="6.13936">
        <ele>387.2</ele>
        <time>2026-03-16T11:01:54Z</time>
      </trkpt>
      <trkpt lat="43.59088" lon="6.13948">
        <ele>387</ele>
        <time>2026-03-16T11:02:04Z</time>
      </trkpt>
      <trkpt lat="43.59091" lon="6.1396">
        <ele>386.6</ele>
        <time>2026-03-16T11:02:14Z</time>
      </trkpt>
      <trkpt lat="43.59093" lon="6.13973">
        <ele>386.3</ele>
        <time>2026-03-16T11:02:29Z</time>
      </trkpt>
      <trkpt lat="43.59094" lon="6.13986">
        <ele>386.2</ele>
        <time>2026-03-16T11:02:45Z</time>
      </trkpt>
      <trkpt lat="43.59096" lon="6.13999">
        <ele>386</ele>
        <time>2026-03-16T11:02:54Z</time>
      </trkpt>
      <trkpt lat="43.59098" lon="6.14013">
        <ele>386.1</ele>
        <time>2026-03-16T11:03:04Z</time>
      </trkpt>
      <trkpt lat="43.59099" lon="6.14026">
        <ele>386.2</ele>
        <time>2026-03-16T11:03:15Z</time>
      </trkpt>
      <trkpt lat="43.59104" lon="6.14038">
        <ele>386.1</ele>
        <time>2026-03-16T11:03:25Z</time>
      </trkpt>
      <trkpt lat="43.59106" lon="6.1405">
        <ele>386.4</ele>
        <time>2026-03-16T11:03:35Z</time>
      </trkpt>
      <trkpt lat="43.59106" lon="6.14063">
        <ele>386.8</ele>
        <time>2026-03-16T11:03:45Z</time>
      </trkpt>
      <trkpt lat="43.59108" lon="6.14076">
        <ele>386.9</ele>
        <time>2026-03-16T11:03:54Z</time>
      </trkpt>
      <trkpt lat="43.59109" lon="6.14088">
        <ele>387.3</ele>
        <time>2026-03-16T11:04:03Z</time>
      </trkpt>
      <trkpt lat="43.59112" lon="6.14101">
        <ele>387.3</ele>
        <time>2026-03-16T11:04:12Z</time>
      </trkpt>
      <trkpt lat="43.59115" lon="6.14113">
        <ele>387.7</ele>
        <time>2026-03-16T11:04:19Z</time>
      </trkpt>
      <trkpt lat="43.59117" lon="6.14126">
        <ele>388.9</ele>
        <time>2026-03-16T11:04:28Z</time>
      </trkpt>
      <trkpt lat="43.59118" lon="6.14139">
        <ele>390</ele>
        <time>2026-03-16T11:04:37Z</time>
      </trkpt>
      <trkpt lat="43.59121" lon="6.14152">
        <ele>390</ele>
        <time>2026-03-16T11:04:46Z</time>
      </trkpt>
      <trkpt lat="43.59124" lon="6.14164">
        <ele>390.5</ele>
        <time>2026-03-16T11:04:55Z</time>
      </trkpt>
      <trkpt lat="43.59125" lon="6.14177">
        <ele>390.5</ele>
        <time>2026-03-16T11:05:04Z</time>
      </trkpt>
      <trkpt lat="43.59128" lon="6.14189">
        <ele>390.6</ele>
        <time>2026-03-16T11:05:12Z</time>
      </trkpt>
      <trkpt lat="43.59128" lon="6.14202">
        <ele>390.5</ele>
        <time>2026-03-16T11:05:20Z</time>
      </trkpt>
      <trkpt lat="43.59132" lon="6.14214">
        <ele>390.3</ele>
        <time>2026-03-16T11:05:28Z</time>
      </trkpt>
      <trkpt lat="43.59134" lon="6.14227">
        <ele>390.5</ele>
        <time>2026-03-16T11:05:37Z</time>
      </trkpt>
      <trkpt lat="43.59135" lon="6.1424">
        <ele>390.8</ele>
        <time>2026-03-16T11:05:45Z</time>
      </trkpt>
      <trkpt lat="43.59137" lon="6.14253">
        <ele>390.9</ele>
        <time>2026-03-16T11:05:54Z</time>
      </trkpt>
      <trkpt lat="43.59136" lon="6.14267">
        <ele>391.3</ele>
        <time>2026-03-16T11:06:15Z</time>
      </trkpt>
      <trkpt lat="43.59138" lon="6.1428">
        <ele>391.4</ele>
        <time>2026-03-16T11:06:24Z</time>
      </trkpt>
      <trkpt lat="43.59139" lon="6.14292">
        <ele>391.5</ele>
        <time>2026-03-16T11:06:34Z</time>
      </trkpt>
      <trkpt lat="43.59141" lon="6.14304">
        <ele>391.8</ele>
        <time>2026-03-16T11:06:42Z</time>
      </trkpt>
      <trkpt lat="43.59143" lon="6.14317">
        <ele>391.7</ele>
        <time>2026-03-16T11:06:50Z</time>
      </trkpt>
      <trkpt lat="43.59143" lon="6.1433">
        <ele>390.8</ele>
        <time>2026-03-16T11:07:01Z</time>
      </trkpt>
      <trkpt lat="43.59144" lon="6.14343">
        <ele>390.3</ele>
        <time>2026-03-16T11:07:09Z</time>
      </trkpt>
      <trkpt lat="43.59146" lon="6.14356">
        <ele>390.1</ele>
        <time>2026-03-16T11:07:17Z</time>
      </trkpt>
      <trkpt lat="43.59147" lon="6.14368">
        <ele>390</ele>
        <time>2026-03-16T11:07:25Z</time>
      </trkpt>
      <trkpt lat="43.59147" lon="6.14382">
        <ele>389.8</ele>
        <time>2026-03-16T11:07:34Z</time>
      </trkpt>
      <trkpt lat="43.59149" lon="6.14394">
        <ele>389.8</ele>
        <time>2026-03-16T11:07:43Z</time>
      </trkpt>
      <trkpt lat="43.59148" lon="6.14407">
        <ele>389.9</ele>
        <time>2026-03-16T11:07:54Z</time>
      </trkpt>
      <trkpt lat="43.59145" lon="6.14419">
        <ele>389.6</ele>
        <time>2026-03-16T11:08:07Z</time>
      </trkpt>
      <trkpt lat="43.59141" lon="6.14431">
        <ele>389.2</ele>
        <time>2026-03-16T11:08:16Z</time>
      </trkpt>
      <trkpt lat="43.59135" lon="6.14442">
        <ele>389</ele>
        <time>2026-03-16T11:08:24Z</time>
      </trkpt>
      <trkpt lat="43.59131" lon="6.14453">
        <ele>388.9</ele>
        <time>2026-03-16T11:08:34Z</time>
      </trkpt>
      <trkpt lat="43.59126" lon="6.14464">
        <ele>388.7</ele>
        <time>2026-03-16T11:08:42Z</time>
      </trkpt>
      <trkpt lat="43.59122" lon="6.14476">
        <ele>388.7</ele>
        <time>2026-03-16T11:08:50Z</time>
      </trkpt>
      <trkpt lat="43.59118" lon="6.14488">
        <ele>388.6</ele>
        <time>2026-03-16T11:08:58Z</time>
      </trkpt>
      <trkpt lat="43.59114" lon="6.145">
        <ele>387.8</ele>
        <time>2026-03-16T11:09:07Z</time>
      </trkpt>
      <trkpt lat="43.59107" lon="6.14509">
        <ele>386.9</ele>
        <time>2026-03-16T11:09:18Z</time>
      </trkpt>
      <trkpt lat="43.59102" lon="6.1452">
        <ele>386.5</ele>
        <time>2026-03-16T11:09:28Z</time>
      </trkpt>
      <trkpt lat="43.59096" lon="6.14531">
        <ele>386.3</ele>
        <time>2026-03-16T11:09:39Z</time>
      </trkpt>
      <trkpt lat="43.59092" lon="6.14542">
        <ele>385.8</ele>
        <time>2026-03-16T11:10:09Z</time>
      </trkpt>
      <trkpt lat="43.59089" lon="6.14555">
        <ele>385.2</ele>
        <time>2026-03-16T11:10:37Z</time>
      </trkpt>
      <trkpt lat="43.59086" lon="6.14567">
        <ele>384.4</ele>
        <time>2026-03-16T11:10:46Z</time>
      </trkpt>
      <trkpt lat="43.59081" lon="6.14578">
        <ele>383.8</ele>
        <time>2026-03-16T11:10:55Z</time>
      </trkpt>
      <trkpt lat="43.59077" lon="6.14589">
        <ele>383.9</ele>
        <time>2026-03-16T11:11:03Z</time>
      </trkpt>
      <trkpt lat="43.59071" lon="6.14599">
        <ele>383.6</ele>
        <time>2026-03-16T11:11:13Z</time>
      </trkpt>
      <trkpt lat="43.59065" lon="6.14609">
        <ele>382.9</ele>
        <time>2026-03-16T11:11:30Z</time>
      </trkpt>
      <trkpt lat="43.5906" lon="6.14621">
        <ele>383.4</ele>
        <time>2026-03-16T11:11:43Z</time>
      </trkpt>
      <trkpt lat="43.59055" lon="6.14631">
        <ele>383.1</ele>
        <time>2026-03-16T11:11:58Z</time>
      </trkpt>
      <trkpt lat="43.59044" lon="6.14632">
        <ele>383.7</ele>
        <time>2026-03-16T11:12:14Z</time>
      </trkpt>
      <trkpt lat="43.59035" lon="6.14635">
        <ele>384.3</ele>
        <time>2026-03-16T11:12:24Z</time>
      </trkpt>
      <trkpt lat="43.59026" lon="6.14636">
        <ele>385.6</ele>
        <time>2026-03-16T11:12:36Z</time>
      </trkpt>
      <trkpt lat="43.59016" lon="6.14638">
        <ele>386.1</ele>
        <time>2026-03-16T11:12:45Z</time>
      </trkpt>
      <trkpt lat="43.59007" lon="6.14637">
        <ele>386.9</ele>
        <time>2026-03-16T11:12:56Z</time>
      </trkpt>
      <trkpt lat="43.58997" lon="6.14636">
        <ele>387.1</ele>
        <time>2026-03-16T11:13:06Z</time>
      </trkpt>
      <trkpt lat="43.58987" lon="6.14635">
        <ele>387.6</ele>
        <time>2026-03-16T11:13:16Z</time>
      </trkpt>
      <trkpt lat="43.58978" lon="6.14634">
        <ele>388.2</ele>
        <time>2026-03-16T11:13:24Z</time>
      </trkpt>
      <trkpt lat="43.58968" lon="6.1463">
        <ele>388.5</ele>
        <time>2026-03-16T11:13:32Z</time>
      </trkpt>
      <trkpt lat="43.58959" lon="6.14624">
        <ele>388.8</ele>
        <time>2026-03-16T11:13:41Z</time>
      </trkpt>
      <trkpt lat="43.5895" lon="6.14621">
        <ele>389.1</ele>
        <time>2026-03-16T11:13:52Z</time>
      </trkpt>
      <trkpt lat="43.58941" lon="6.14622">
        <ele>389.1</ele>
        <time>2026-03-16T11:14:04Z</time>
      </trkpt>
      <trkpt lat="43.58932" lon="6.14626">
        <ele>389.3</ele>
        <time>2026-03-16T11:14:18Z</time>
      </trkpt>
      <trkpt lat="43.58924" lon="6.14632">
        <ele>389.8</ele>
        <time>2026-03-16T11:14:30Z</time>
      </trkpt>
      <trkpt lat="43.58915" lon="6.14636">
        <ele>389.4</ele>
        <time>2026-03-16T11:14:41Z</time>
      </trkpt>
      <trkpt lat="43.58906" lon="6.14638">
        <ele>389.6</ele>
        <time>2026-03-16T11:14:50Z</time>
      </trkpt>
      <trkpt lat="43.58896" lon="6.14641">
        <ele>389.6</ele>
        <time>2026-03-16T11:15:12Z</time>
      </trkpt>
      <trkpt lat="43.58887" lon="6.14642">
        <ele>389.6</ele>
        <time>2026-03-16T11:15:23Z</time>
      </trkpt>
      <trkpt lat="43.58877" lon="6.14641">
        <ele>389.5</ele>
        <time>2026-03-16T11:15:36Z</time>
      </trkpt>
      <trkpt lat="43.58868" lon="6.14642">
        <ele>389.7</ele>
        <time>2026-03-16T11:15:45Z</time>
      </trkpt>
      <trkpt lat="43.58859" lon="6.14647">
        <ele>389.6</ele>
        <time>2026-03-16T11:15:52Z</time>
      </trkpt>
      <trkpt lat="43.58849" lon="6.14649">
        <ele>389.9</ele>
        <time>2026-03-16T11:16:01Z</time>
      </trkpt>
      <trkpt lat="43.58841" lon="6.14645">
        <ele>390.6</ele>
        <time>2026-03-16T11:16:13Z</time>
      </trkpt>
      <trkpt lat="43.58838" lon="6.14632">
        <ele>391.1</ele>
        <time>2026-03-16T11:16:33Z</time>
      </trkpt>
      <trkpt lat="43.58841" lon="6.1462">
        <ele>390.5</ele>
        <time>2026-03-16T11:20:07Z</time>
      </trkpt>
      <trkpt lat="43.58839" lon="6.14633">
        <ele>402.6</ele>
        <time>2026-03-16T12:07:49Z</time>
      </trkpt>
      <trkpt lat="43.58833" lon="6.14643">
        <ele>401.3</ele>
        <time>2026-03-16T12:11:43Z</time>
      </trkpt>
      <trkpt lat="43.58826" lon="6.14651">
        <ele>400.3</ele>
        <time>2026-03-16T12:11:56Z</time>
      </trkpt>
      <trkpt lat="43.58818" lon="6.14659">
        <ele>399.7</ele>
        <time>2026-03-16T12:12:10Z</time>
      </trkpt>
      <trkpt lat="43.58808" lon="6.1466">
        <ele>399.2</ele>
        <time>2026-03-16T12:12:20Z</time>
      </trkpt>
      <trkpt lat="43.58799" lon="6.14661">
        <ele>398.7</ele>
        <time>2026-03-16T12:12:29Z</time>
      </trkpt>
      <trkpt lat="43.58789" lon="6.1466">
        <ele>397.8</ele>
        <time>2026-03-16T12:12:55Z</time>
      </trkpt>
      <trkpt lat="43.5878" lon="6.14659">
        <ele>397.6</ele>
        <time>2026-03-16T12:13:04Z</time>
      </trkpt>
      <trkpt lat="43.58771" lon="6.14657">
        <ele>397.4</ele>
        <time>2026-03-16T12:13:14Z</time>
      </trkpt>
      <trkpt lat="43.58762" lon="6.14655">
        <ele>397.2</ele>
        <time>2026-03-16T12:13:24Z</time>
      </trkpt>
      <trkpt lat="43.58752" lon="6.14652">
        <ele>397.1</ele>
        <time>2026-03-16T12:13:40Z</time>
      </trkpt>
      <trkpt lat="43.58743" lon="6.14648">
        <ele>397.3</ele>
        <time>2026-03-16T12:13:49Z</time>
      </trkpt>
      <trkpt lat="43.58734" lon="6.14645">
        <ele>397.5</ele>
        <time>2026-03-16T12:13:57Z</time>
      </trkpt>
      <trkpt lat="43.58726" lon="6.1464">
        <ele>397.1</ele>
        <time>2026-03-16T12:14:07Z</time>
      </trkpt>
      <trkpt lat="43.58716" lon="6.14635">
        <ele>397</ele>
        <time>2026-03-16T12:14:16Z</time>
      </trkpt>
      <trkpt lat="43.58708" lon="6.1463">
        <ele>397.6</ele>
        <time>2026-03-16T12:14:25Z</time>
      </trkpt>
      <trkpt lat="43.58699" lon="6.14626">
        <ele>397.9</ele>
        <time>2026-03-16T12:14:33Z</time>
      </trkpt>
      <trkpt lat="43.5869" lon="6.14622">
        <ele>398.6</ele>
        <time>2026-03-16T12:14:42Z</time>
      </trkpt>
      <trkpt lat="43.5868" lon="6.14621">
        <ele>398.8</ele>
        <time>2026-03-16T12:14:51Z</time>
      </trkpt>
      <trkpt lat="43.58671" lon="6.14622">
        <ele>399.2</ele>
        <time>2026-03-16T12:15:00Z</time>
      </trkpt>
      <trkpt lat="43.58661" lon="6.14624">
        <ele>400.2</ele>
        <time>2026-03-16T12:15:09Z</time>
      </trkpt>
      <trkpt lat="43.58652" lon="6.14625">
        <ele>401.4</ele>
        <time>2026-03-16T12:15:18Z</time>
      </trkpt>
      <trkpt lat="43.58642" lon="6.14623">
        <ele>402.3</ele>
        <time>2026-03-16T12:15:27Z</time>
      </trkpt>
      <trkpt lat="43.58633" lon="6.1462">
        <ele>403.4</ele>
        <time>2026-03-16T12:15:41Z</time>
      </trkpt>
      <trkpt lat="43.58624" lon="6.14617">
        <ele>404.4</ele>
        <time>2026-03-16T12:16:13Z</time>
      </trkpt>
      <trkpt lat="43.58617" lon="6.1461">
        <ele>404.7</ele>
        <time>2026-03-16T12:16:23Z</time>
      </trkpt>
      <trkpt lat="43.58608" lon="6.14607">
        <ele>405.9</ele>
        <time>2026-03-16T12:17:14Z</time>
      </trkpt>
      <trkpt lat="43.586" lon="6.14601">
        <ele>406.1</ele>
        <time>2026-03-16T12:17:23Z</time>
      </trkpt>
      <trkpt lat="43.5859" lon="6.14604">
        <ele>405.4</ele>
        <time>2026-03-16T12:17:49Z</time>
      </trkpt>
      <trkpt lat="43.58586" lon="6.14615">
        <ele>404.4</ele>
        <time>2026-03-16T12:18:00Z</time>
      </trkpt>
      <trkpt lat="43.58584" lon="6.14628">
        <ele>403.4</ele>
        <time>2026-03-16T12:18:12Z</time>
      </trkpt>
      <trkpt lat="43.58581" lon="6.1464">
        <ele>402.8</ele>
        <time>2026-03-16T12:18:22Z</time>
      </trkpt>
      <trkpt lat="43.58576" lon="6.1465">
        <ele>402.2</ele>
        <time>2026-03-16T12:18:32Z</time>
      </trkpt>
      <trkpt lat="43.58569" lon="6.14659">
        <ele>401.4</ele>
        <time>2026-03-16T12:18:42Z</time>
      </trkpt>
      <trkpt lat="43.58562" lon="6.14668">
        <ele>401.3</ele>
        <time>2026-03-16T12:18:53Z</time>
      </trkpt>
      <trkpt lat="43.58556" lon="6.14678">
        <ele>400.9</ele>
        <time>2026-03-16T12:19:02Z</time>
      </trkpt>
      <trkpt lat="43.58547" lon="6.14684">
        <ele>400.7</ele>
        <time>2026-03-16T12:19:10Z</time>
      </trkpt>
      <trkpt lat="43.58538" lon="6.1469">
        <ele>400.5</ele>
        <time>2026-03-16T12:19:19Z</time>
      </trkpt>
      <trkpt lat="43.58529" lon="6.14694">
        <ele>400.2</ele>
        <time>2026-03-16T12:19:27Z</time>
      </trkpt>
      <trkpt lat="43.5852" lon="6.14699">
        <ele>399.9</ele>
        <time>2026-03-16T12:19:51Z</time>
      </trkpt>
      <trkpt lat="43.58512" lon="6.14707">
        <ele>399.6</ele>
        <time>2026-03-16T12:20:00Z</time>
      </trkpt>
      <trkpt lat="43.58507" lon="6.14719">
        <ele>399.3</ele>
        <time>2026-03-16T12:20:09Z</time>
      </trkpt>
      <trkpt lat="43.58506" lon="6.14731">
        <ele>398.9</ele>
        <time>2026-03-16T12:20:18Z</time>
      </trkpt>
      <trkpt lat="43.58509" lon="6.14743">
        <ele>398.2</ele>
        <time>2026-03-16T12:20:27Z</time>
      </trkpt>
      <trkpt lat="43.58513" lon="6.14755">
        <ele>397.5</ele>
        <time>2026-03-16T12:20:37Z</time>
      </trkpt>
      <trkpt lat="43.58515" lon="6.14767">
        <ele>396.6</ele>
        <time>2026-03-16T12:20:47Z</time>
      </trkpt>
      <trkpt lat="43.58519" lon="6.14779">
        <ele>396.3</ele>
        <time>2026-03-16T12:20:57Z</time>
      </trkpt>
      <trkpt lat="43.58523" lon="6.1479">
        <ele>396.2</ele>
        <time>2026-03-16T12:21:06Z</time>
      </trkpt>
      <trkpt lat="43.58527" lon="6.14801">
        <ele>395.9</ele>
        <time>2026-03-16T12:21:15Z</time>
      </trkpt>
      <trkpt lat="43.58531" lon="6.14813">
        <ele>395.6</ele>
        <time>2026-03-16T12:21:25Z</time>
      </trkpt>
      <trkpt lat="43.58534" lon="6.14824">
        <ele>395.4</ele>
        <time>2026-03-16T12:21:35Z</time>
      </trkpt>
      <trkpt lat="43.58539" lon="6.14836">
        <ele>394.7</ele>
        <time>2026-03-16T12:21:45Z</time>
      </trkpt>
      <trkpt lat="43.58543" lon="6.14848">
        <ele>394.2</ele>
        <time>2026-03-16T12:21:55Z</time>
      </trkpt>
      <trkpt lat="43.58548" lon="6.14859">
        <ele>393.7</ele>
        <time>2026-03-16T12:22:05Z</time>
      </trkpt>
      <trkpt lat="43.58552" lon="6.1487">
        <ele>393.7</ele>
        <time>2026-03-16T12:22:14Z</time>
      </trkpt>
      <trkpt lat="43.58556" lon="6.14882">
        <ele>393.9</ele>
        <time>2026-03-16T12:22:23Z</time>
      </trkpt>
      <trkpt lat="43.5856" lon="6.14893">
        <ele>393.4</ele>
        <time>2026-03-16T12:22:33Z</time>
      </trkpt>
      <trkpt lat="43.58563" lon="6.14905">
        <ele>393.3</ele>
        <time>2026-03-16T12:22:43Z</time>
      </trkpt>
      <trkpt lat="43.58567" lon="6.14917">
        <ele>393.4</ele>
        <time>2026-03-16T12:22:53Z</time>
      </trkpt>
      <trkpt lat="43.58571" lon="6.14928">
        <ele>393.6</ele>
        <time>2026-03-16T12:23:02Z</time>
      </trkpt>
      <trkpt lat="43.58576" lon="6.1494">
        <ele>393.7</ele>
        <time>2026-03-16T12:23:11Z</time>
      </trkpt>
      <trkpt lat="43.5858" lon="6.14951">
        <ele>393.5</ele>
        <time>2026-03-16T12:23:21Z</time>
      </trkpt>
      <trkpt lat="43.58584" lon="6.14962">
        <ele>393.1</ele>
        <time>2026-03-16T12:23:31Z</time>
      </trkpt>
      <trkpt lat="43.58588" lon="6.14974">
        <ele>392.5</ele>
        <time>2026-03-16T12:23:44Z</time>
      </trkpt>
      <trkpt lat="43.58592" lon="6.14986">
        <ele>391.7</ele>
        <time>2026-03-16T12:23:53Z</time>
      </trkpt>
      <trkpt lat="43.58596" lon="6.14998">
        <ele>391.9</ele>
        <time>2026-03-16T12:24:02Z</time>
      </trkpt>
      <trkpt lat="43.586" lon="6.15009">
        <ele>392.1</ele>
        <time>2026-03-16T12:24:11Z</time>
      </trkpt>
      <trkpt lat="43.58604" lon="6.15021">
        <ele>391.4</ele>
        <time>2026-03-16T12:24:20Z</time>
      </trkpt>
      <trkpt lat="43.58608" lon="6.15033">
        <ele>391.5</ele>
        <time>2026-03-16T12:24:29Z</time>
      </trkpt>
      <trkpt lat="43.58613" lon="6.15044">
        <ele>391.9</ele>
        <time>2026-03-16T12:24:36Z</time>
      </trkpt>
      <trkpt lat="43.58616" lon="6.15056">
        <ele>392.1</ele>
        <time>2026-03-16T12:24:45Z</time>
      </trkpt>
      <trkpt lat="43.5862" lon="6.15068">
        <ele>392.3</ele>
        <time>2026-03-16T12:24:55Z</time>
      </trkpt>
      <trkpt lat="43.58623" lon="6.15081">
        <ele>392.1</ele>
        <time>2026-03-16T12:25:04Z</time>
      </trkpt>
      <trkpt lat="43.58622" lon="6.15093">
        <ele>392</ele>
        <time>2026-03-16T12:25:13Z</time>
      </trkpt>
      <trkpt lat="43.58618" lon="6.15104">
        <ele>392.1</ele>
        <time>2026-03-16T12:25:25Z</time>
      </trkpt>
      <trkpt lat="43.5861" lon="6.15112">
        <ele>391.9</ele>
        <time>2026-03-16T12:25:33Z</time>
      </trkpt>
      <trkpt lat="43.58608" lon="6.15124">
        <ele>391.8</ele>
        <time>2026-03-16T12:25:41Z</time>
      </trkpt>
      <trkpt lat="43.58608" lon="6.15137">
        <ele>391.5</ele>
        <time>2026-03-16T12:25:50Z</time>
      </trkpt>
      <trkpt lat="43.5861" lon="6.1515">
        <ele>391.4</ele>
        <time>2026-03-16T12:25:59Z</time>
      </trkpt>
      <trkpt lat="43.58612" lon="6.15162">
        <ele>391.4</ele>
        <time>2026-03-16T12:26:09Z</time>
      </trkpt>
      <trkpt lat="43.58613" lon="6.15175">
        <ele>391.4</ele>
        <time>2026-03-16T12:26:25Z</time>
      </trkpt>
      <trkpt lat="43.58615" lon="6.15187">
        <ele>391.6</ele>
        <time>2026-03-16T12:26:34Z</time>
      </trkpt>
      <trkpt lat="43.58616" lon="6.152">
        <ele>391.2</ele>
        <time>2026-03-16T12:26:53Z</time>
      </trkpt>
      <trkpt lat="43.58619" lon="6.15212">
        <ele>391.3</ele>
        <time>2026-03-16T12:27:06Z</time>
      </trkpt>
      <trkpt lat="43.5862" lon="6.15225">
        <ele>391.3</ele>
        <time>2026-03-16T12:27:18Z</time>
      </trkpt>
      <trkpt lat="43.58618" lon="6.15237">
        <ele>391.9</ele>
        <time>2026-03-16T12:27:32Z</time>
      </trkpt>
      <trkpt lat="43.58621" lon="6.1525">
        <ele>392.4</ele>
        <time>2026-03-16T12:27:46Z</time>
      </trkpt>
      <trkpt lat="43.58623" lon="6.15263">
        <ele>392.6</ele>
        <time>2026-03-16T12:27:56Z</time>
      </trkpt>
      <trkpt lat="43.58624" lon="6.15276">
        <ele>393</ele>
        <time>2026-03-16T12:28:06Z</time>
      </trkpt>
      <trkpt lat="43.58629" lon="6.15286">
        <ele>393.3</ele>
        <time>2026-03-16T12:28:23Z</time>
      </trkpt>
      <trkpt lat="43.58632" lon="6.15299">
        <ele>392.6</ele>
        <time>2026-03-16T12:28:42Z</time>
      </trkpt>
      <trkpt lat="43.58637" lon="6.15309">
        <ele>392.2</ele>
        <time>2026-03-16T12:28:51Z</time>
      </trkpt>
      <trkpt lat="43.5864" lon="6.15321">
        <ele>391.4</ele>
        <time>2026-03-16T12:29:01Z</time>
      </trkpt>
      <trkpt lat="43.58644" lon="6.15333">
        <ele>391.6</ele>
        <time>2026-03-16T12:29:09Z</time>
      </trkpt>
      <trkpt lat="43.58646" lon="6.15346">
        <ele>391.6</ele>
        <time>2026-03-16T12:29:18Z</time>
      </trkpt>
      <trkpt lat="43.58648" lon="6.15359">
        <ele>391.2</ele>
        <time>2026-03-16T12:29:30Z</time>
      </trkpt>
      <trkpt lat="43.58647" lon="6.15372">
        <ele>390.9</ele>
        <time>2026-03-16T12:29:40Z</time>
      </trkpt>
      <trkpt lat="43.58646" lon="6.15385">
        <ele>390.3</ele>
        <time>2026-03-16T12:29:51Z</time>
      </trkpt>
      <trkpt lat="43.58642" lon="6.15396">
        <ele>390</ele>
        <time>2026-03-16T12:30:01Z</time>
      </trkpt>
      <trkpt lat="43.58639" lon="6.15408">
        <ele>389.2</ele>
        <time>2026-03-16T12:30:12Z</time>
      </trkpt>
      <trkpt lat="43.58636" lon="6.15419">
        <ele>388.8</ele>
        <time>2026-03-16T12:30:21Z</time>
      </trkpt>
      <trkpt lat="43.58632" lon="6.15431">
        <ele>389.3</ele>
        <time>2026-03-16T12:30:43Z</time>
      </trkpt>
      <trkpt lat="43.58627" lon="6.15444">
        <ele>388.6</ele>
        <time>2026-03-16T12:30:54Z</time>
      </trkpt>
      <trkpt lat="43.58624" lon="6.15455">
        <ele>388.1</ele>
        <time>2026-03-16T12:31:03Z</time>
      </trkpt>
      <trkpt lat="43.5862" lon="6.15468">
        <ele>387.9</ele>
        <time>2026-03-16T12:31:12Z</time>
      </trkpt>
      <trkpt lat="43.58617" lon="6.1548">
        <ele>388</ele>
        <time>2026-03-16T12:31:22Z</time>
      </trkpt>
      <trkpt lat="43.58613" lon="6.15492">
        <ele>387.7</ele>
        <time>2026-03-16T12:31:31Z</time>
      </trkpt>
      <trkpt lat="43.58609" lon="6.15504">
        <ele>387.6</ele>
        <time>2026-03-16T12:31:40Z</time>
      </trkpt>
      <trkpt lat="43.58606" lon="6.15517">
        <ele>387.9</ele>
        <time>2026-03-16T12:31:49Z</time>
      </trkpt>
      <trkpt lat="43.58603" lon="6.15529">
        <ele>388.2</ele>
        <time>2026-03-16T12:32:03Z</time>
      </trkpt>
      <trkpt lat="43.586" lon="6.15542">
        <ele>388</ele>
        <time>2026-03-16T12:32:12Z</time>
      </trkpt>
      <trkpt lat="43.58595" lon="6.15553">
        <ele>387.4</ele>
        <time>2026-03-16T12:32:23Z</time>
      </trkpt>
      <trkpt lat="43.58593" lon="6.15566">
        <ele>387.5</ele>
        <time>2026-03-16T12:32:32Z</time>
      </trkpt>
      <trkpt lat="43.58589" lon="6.15578">
        <ele>387.7</ele>
        <time>2026-03-16T12:32:41Z</time>
      </trkpt>
      <trkpt lat="43.58586" lon="6.15591">
        <ele>387.4</ele>
        <time>2026-03-16T12:32:50Z</time>
      </trkpt>
      <trkpt lat="43.58581" lon="6.15602">
        <ele>387.2</ele>
        <time>2026-03-16T12:32:59Z</time>
      </trkpt>
      <trkpt lat="43.58578" lon="6.15615">
        <ele>387.6</ele>
        <time>2026-03-16T12:33:08Z</time>
      </trkpt>
      <trkpt lat="43.58577" lon="6.15627">
        <ele>387.7</ele>
        <time>2026-03-16T12:33:19Z</time>
      </trkpt>
      <trkpt lat="43.58568" lon="6.15622">
        <ele>387.7</ele>
        <time>2026-03-16T12:33:35Z</time>
      </trkpt>
      <trkpt lat="43.5856" lon="6.15613">
        <ele>387.6</ele>
        <time>2026-03-16T12:33:50Z</time>
      </trkpt>
      <trkpt lat="43.58553" lon="6.15603">
        <ele>387.4</ele>
        <time>2026-03-16T12:34:00Z</time>
      </trkpt>
      <trkpt lat="43.58546" lon="6.15594">
        <ele>387.7</ele>
        <time>2026-03-16T12:34:09Z</time>
      </trkpt>
      <trkpt lat="43.5854" lon="6.15585">
        <ele>387.9</ele>
        <time>2026-03-16T12:34:19Z</time>
      </trkpt>
      <trkpt lat="43.58533" lon="6.15576">
        <ele>387.8</ele>
        <time>2026-03-16T12:34:29Z</time>
      </trkpt>
      <trkpt lat="43.58526" lon="6.15567">
        <ele>388.1</ele>
        <time>2026-03-16T12:34:38Z</time>
      </trkpt>
      <trkpt lat="43.5852" lon="6.15558">
        <ele>388.2</ele>
        <time>2026-03-16T12:34:47Z</time>
      </trkpt>
      <trkpt lat="43.58512" lon="6.1555">
        <ele>388.5</ele>
        <time>2026-03-16T12:35:30Z</time>
      </trkpt>
      <trkpt lat="43.58505" lon="6.15542">
        <ele>388.6</ele>
        <time>2026-03-16T12:35:38Z</time>
      </trkpt>
      <trkpt lat="43.58498" lon="6.15532">
        <ele>388.8</ele>
        <time>2026-03-16T12:35:46Z</time>
      </trkpt>
      <trkpt lat="43.58491" lon="6.15523">
        <ele>388.7</ele>
        <time>2026-03-16T12:35:54Z</time>
      </trkpt>
      <trkpt lat="43.58484" lon="6.15516">
        <ele>388.7</ele>
        <time>2026-03-16T12:36:02Z</time>
      </trkpt>
      <trkpt lat="43.58478" lon="6.15505">
        <ele>388.7</ele>
        <time>2026-03-16T12:36:10Z</time>
      </trkpt>
      <trkpt lat="43.58471" lon="6.15498">
        <ele>389.3</ele>
        <time>2026-03-16T12:36:19Z</time>
      </trkpt>
      <trkpt lat="43.58462" lon="6.15494">
        <ele>389.7</ele>
        <time>2026-03-16T12:36:28Z</time>
      </trkpt>
      <trkpt lat="43.58453" lon="6.15489">
        <ele>389.8</ele>
        <time>2026-03-16T12:36:36Z</time>
      </trkpt>
      <trkpt lat="43.58444" lon="6.15484">
        <ele>390.1</ele>
        <time>2026-03-16T12:36:45Z</time>
      </trkpt>
      <trkpt lat="43.58434" lon="6.15482">
        <ele>390.7</ele>
        <time>2026-03-16T12:36:55Z</time>
      </trkpt>
      <trkpt lat="43.58425" lon="6.15481">
        <ele>391.2</ele>
        <time>2026-03-16T12:37:03Z</time>
      </trkpt>
      <trkpt lat="43.58416" lon="6.15478">
        <ele>391.6</ele>
        <time>2026-03-16T12:37:12Z</time>
      </trkpt>
      <trkpt lat="43.58409" lon="6.15469">
        <ele>392.1</ele>
        <time>2026-03-16T12:37:21Z</time>
      </trkpt>
      <trkpt lat="43.58405" lon="6.15457">
        <ele>392.4</ele>
        <time>2026-03-16T12:37:29Z</time>
      </trkpt>
      <trkpt lat="43.584" lon="6.15447">
        <ele>393</ele>
        <time>2026-03-16T12:37:37Z</time>
      </trkpt>
      <trkpt lat="43.58393" lon="6.15439">
        <ele>393.2</ele>
        <time>2026-03-16T12:37:48Z</time>
      </trkpt>
      <trkpt lat="43.58383" lon="6.15434">
        <ele>393</ele>
        <time>2026-03-16T12:37:57Z</time>
      </trkpt>
      <trkpt lat="43.58374" lon="6.15439">
        <ele>392.8</ele>
        <time>2026-03-16T12:38:07Z</time>
      </trkpt>
      <trkpt lat="43.58368" lon="6.15448">
        <ele>392.6</ele>
        <time>2026-03-16T12:38:17Z</time>
      </trkpt>
      <trkpt lat="43.58365" lon="6.1546">
        <ele>392.5</ele>
        <time>2026-03-16T12:38:27Z</time>
      </trkpt>
      <trkpt lat="43.58363" lon="6.15473">
        <ele>392.3</ele>
        <time>2026-03-16T12:38:37Z</time>
      </trkpt>
      <trkpt lat="43.58361" lon="6.15485">
        <ele>391.9</ele>
        <time>2026-03-16T12:38:46Z</time>
      </trkpt>
      <trkpt lat="43.5836" lon="6.15498">
        <ele>391.2</ele>
        <time>2026-03-16T12:38:54Z</time>
      </trkpt>
      <trkpt lat="43.5836" lon="6.1551">
        <ele>391.4</ele>
        <time>2026-03-16T12:39:03Z</time>
      </trkpt>
      <trkpt lat="43.58358" lon="6.15523">
        <ele>391.5</ele>
        <time>2026-03-16T12:39:36Z</time>
      </trkpt>
      <trkpt lat="43.58359" lon="6.15535">
        <ele>391.5</ele>
        <time>2026-03-16T12:40:08Z</time>
      </trkpt>
      <trkpt lat="43.58354" lon="6.15546">
        <ele>391.7</ele>
        <time>2026-03-16T12:40:26Z</time>
      </trkpt>
      <trkpt lat="43.5835" lon="6.15558">
        <ele>392</ele>
        <time>2026-03-16T12:40:43Z</time>
      </trkpt>
      <trkpt lat="43.58347" lon="6.15571">
        <ele>391.7</ele>
        <time>2026-03-16T12:40:56Z</time>
      </trkpt>
      <trkpt lat="43.58344" lon="6.15584">
        <ele>391.2</ele>
        <time>2026-03-16T12:41:05Z</time>
      </trkpt>
      <trkpt lat="43.58339" lon="6.15595">
        <ele>391.1</ele>
        <time>2026-03-16T12:41:15Z</time>
      </trkpt>
      <trkpt lat="43.58331" lon="6.15604">
        <ele>391.4</ele>
        <time>2026-03-16T12:41:25Z</time>
      </trkpt>
      <trkpt lat="43.58325" lon="6.15613">
        <ele>392.2</ele>
        <time>2026-03-16T12:41:36Z</time>
      </trkpt>
      <trkpt lat="43.5832" lon="6.15624">
        <ele>392.2</ele>
        <time>2026-03-16T12:41:53Z</time>
      </trkpt>
      <trkpt lat="43.58313" lon="6.15635">
        <ele>392.7</ele>
        <time>2026-03-16T12:42:06Z</time>
      </trkpt>
      <trkpt lat="43.58308" lon="6.15645">
        <ele>392.9</ele>
        <time>2026-03-16T12:42:17Z</time>
      </trkpt>
      <trkpt lat="43.58301" lon="6.15654">
        <ele>393.1</ele>
        <time>2026-03-16T12:42:27Z</time>
      </trkpt>
      <trkpt lat="43.58296" lon="6.15666">
        <ele>393.6</ele>
        <time>2026-03-16T12:42:38Z</time>
      </trkpt>
      <trkpt lat="43.58294" lon="6.15678">
        <ele>394.2</ele>
        <time>2026-03-16T12:42:52Z</time>
      </trkpt>
      <trkpt lat="43.58293" lon="6.15691">
        <ele>394.7</ele>
        <time>2026-03-16T12:43:05Z</time>
      </trkpt>
      <trkpt lat="43.58286" lon="6.15699">
        <ele>394.8</ele>
        <time>2026-03-16T12:45:11Z</time>
      </trkpt>
      <trkpt lat="43.58277" lon="6.15697">
        <ele>394.5</ele>
        <time>2026-03-16T12:45:22Z</time>
      </trkpt>
      <trkpt lat="43.58267" lon="6.15693">
        <ele>394.8</ele>
        <time>2026-03-16T12:45:34Z</time>
      </trkpt>
      <trkpt lat="43.58258" lon="6.1569">
        <ele>395.2</ele>
        <time>2026-03-16T12:45:45Z</time>
      </trkpt>
      <trkpt lat="43.5825" lon="6.15687">
        <ele>395.9</ele>
        <time>2026-03-16T12:46:06Z</time>
      </trkpt>
      <trkpt lat="43.58242" lon="6.15693">
        <ele>396.4</ele>
        <time>2026-03-16T12:46:20Z</time>
      </trkpt>
      <trkpt lat="43.58234" lon="6.15702">
        <ele>396.7</ele>
        <time>2026-03-16T12:46:34Z</time>
      </trkpt>
      <trkpt lat="43.58225" lon="6.15702">
        <ele>397.5</ele>
        <time>2026-03-16T12:47:36Z</time>
      </trkpt>
      <trkpt lat="43.58217" lon="6.15708">
        <ele>398</ele>
        <time>2026-03-16T12:50:17Z</time>
      </trkpt>
      <trkpt lat="43.58208" lon="6.1571">
        <ele>398.1</ele>
        <time>2026-03-16T12:51:35Z</time>
      </trkpt>
      <trkpt lat="43.582" lon="6.15718">
        <ele>398.7</ele>
        <time>2026-03-16T12:51:51Z</time>
      </trkpt>
      <trkpt lat="43.58192" lon="6.15722">
        <ele>399.1</ele>
        <time>2026-03-16T12:52:03Z</time>
      </trkpt>
      <trkpt lat="43.58184" lon="6.15728">
        <ele>400.2</ele>
        <time>2026-03-16T12:52:20Z</time>
      </trkpt>
      <trkpt lat="43.58178" lon="6.15739">
        <ele>400.7</ele>
        <time>2026-03-16T12:52:45Z</time>
      </trkpt>
      <trkpt lat="43.58177" lon="6.15752">
        <ele>401.6</ele>
        <time>2026-03-16T12:53:03Z</time>
      </trkpt>
      <trkpt lat="43.58179" lon="6.15764">
        <ele>401.9</ele>
        <time>2026-03-16T12:53:16Z</time>
      </trkpt>
      <trkpt lat="43.58186" lon="6.15772">
        <ele>402.3</ele>
        <time>2026-03-16T12:53:31Z</time>
      </trkpt>
      <trkpt lat="43.58191" lon="6.15782">
        <ele>402.6</ele>
        <time>2026-03-16T12:53:45Z</time>
      </trkpt>
      <trkpt lat="43.58197" lon="6.15792">
        <ele>403.2</ele>
        <time>2026-03-16T12:53:56Z</time>
      </trkpt>
      <trkpt lat="43.58203" lon="6.15803">
        <ele>403.3</ele>
        <time>2026-03-16T12:54:07Z</time>
      </trkpt>
      <trkpt lat="43.58208" lon="6.15814">
        <ele>403.6</ele>
        <time>2026-03-16T12:54:18Z</time>
      </trkpt>
      <trkpt lat="43.58213" lon="6.15824">
        <ele>403.8</ele>
        <time>2026-03-16T12:54:28Z</time>
      </trkpt>
      <trkpt lat="43.58217" lon="6.15836">
        <ele>403.1</ele>
        <time>2026-03-16T12:54:43Z</time>
      </trkpt>
      <trkpt lat="43.5822" lon="6.15849">
        <ele>402.4</ele>
        <time>2026-03-16T12:54:52Z</time>
      </trkpt>
      <trkpt lat="43.58228" lon="6.15858">
        <ele>402.8</ele>
        <time>2026-03-16T12:55:04Z</time>
      </trkpt>
      <trkpt lat="43.58234" lon="6.15867">
        <ele>403</ele>
        <time>2026-03-16T12:55:12Z</time>
      </trkpt>
      <trkpt lat="43.58237" lon="6.1588">
        <ele>403.2</ele>
        <time>2026-03-16T12:55:26Z</time>
      </trkpt>
      <trkpt lat="43.58237" lon="6.15893">
        <ele>403.4</ele>
        <time>2026-03-16T12:55:39Z</time>
      </trkpt>
      <trkpt lat="43.58237" lon="6.15906">
        <ele>404.4</ele>
        <time>2026-03-16T12:55:53Z</time>
      </trkpt>
      <trkpt lat="43.58236" lon="6.15918">
        <ele>405.3</ele>
        <time>2026-03-16T12:56:05Z</time>
      </trkpt>
      <trkpt lat="43.58235" lon="6.15932">
        <ele>406.5</ele>
        <time>2026-03-16T12:56:20Z</time>
      </trkpt>
      <trkpt lat="43.58235" lon="6.15945">
        <ele>407.7</ele>
        <time>2026-03-16T12:56:53Z</time>
      </trkpt>
      <trkpt lat="43.58235" lon="6.15959">
        <ele>409.5</ele>
        <time>2026-03-16T12:57:07Z</time>
      </trkpt>
      <trkpt lat="43.58233" lon="6.15972">
        <ele>410.2</ele>
        <time>2026-03-16T12:57:23Z</time>
      </trkpt>
      <trkpt lat="43.58232" lon="6.15985">
        <ele>410.7</ele>
        <time>2026-03-16T12:57:35Z</time>
      </trkpt>
      <trkpt lat="43.58233" lon="6.15998">
        <ele>411.8</ele>
        <time>2026-03-16T12:57:48Z</time>
      </trkpt>
      <trkpt lat="43.58233" lon="6.16011">
        <ele>413.6</ele>
        <time>2026-03-16T12:58:05Z</time>
      </trkpt>
      <trkpt lat="43.5823" lon="6.16023">
        <ele>413.2</ele>
        <time>2026-03-16T13:08:06Z</time>
      </trkpt>
      <trkpt lat="43.58227" lon="6.16035">
        <ele>415.2</ele>
        <time>2026-03-16T13:08:37Z</time>
      </trkpt>
      <trkpt lat="43.58232" lon="6.16046">
        <ele>417.2</ele>
        <time>2026-03-16T13:09:00Z</time>
      </trkpt>
      <trkpt lat="43.58235" lon="6.16058">
        <ele>418.5</ele>
        <time>2026-03-16T13:09:17Z</time>
      </trkpt>
      <trkpt lat="43.58229" lon="6.16067">
        <ele>420.6</ele>
        <time>2026-03-16T13:09:41Z</time>
      </trkpt>
      <trkpt lat="43.58221" lon="6.16061">
        <ele>420.1</ele>
        <time>2026-03-16T13:10:17Z</time>
      </trkpt>
      <trkpt lat="43.58214" lon="6.16052">
        <ele>421.6</ele>
        <time>2026-03-16T13:10:29Z</time>
      </trkpt>
      <trkpt lat="43.58205" lon="6.16047">
        <ele>422.3</ele>
        <time>2026-03-16T13:10:43Z</time>
      </trkpt>
      <trkpt lat="43.58199" lon="6.16037">
        <ele>424.3</ele>
        <time>2026-03-16T13:10:58Z</time>
      </trkpt>
      <trkpt lat="43.58197" lon="6.16025">
        <ele>427.4</ele>
        <time>2026-03-16T13:11:44Z</time>
      </trkpt>
      <trkpt lat="43.58191" lon="6.16014">
        <ele>428.8</ele>
        <time>2026-03-16T13:12:02Z</time>
      </trkpt>
      <trkpt lat="43.58183" lon="6.16009">
        <ele>430.2</ele>
        <time>2026-03-16T13:12:17Z</time>
      </trkpt>
      <trkpt lat="43.58174" lon="6.16005">
        <ele>430.6</ele>
        <time>2026-03-16T13:12:36Z</time>
      </trkpt>
      <trkpt lat="43.58166" lon="6.15997">
        <ele>432.9</ele>
        <time>2026-03-16T13:12:56Z</time>
      </trkpt>
      <trkpt lat="43.5816" lon="6.15988">
        <ele>434.3</ele>
        <time>2026-03-16T13:13:24Z</time>
      </trkpt>
      <trkpt lat="43.58153" lon="6.15979">
        <ele>434.6</ele>
        <time>2026-03-16T13:13:36Z</time>
      </trkpt>
      <trkpt lat="43.58144" lon="6.15975">
        <ele>435.8</ele>
        <time>2026-03-16T13:13:49Z</time>
      </trkpt>
      <trkpt lat="43.58135" lon="6.15975">
        <ele>437.4</ele>
        <time>2026-03-16T13:14:05Z</time>
      </trkpt>
      <trkpt lat="43.58126" lon="6.15977">
        <ele>438.5</ele>
        <time>2026-03-16T13:14:52Z</time>
      </trkpt>
      <trkpt lat="43.58118" lon="6.15985">
        <ele>440.6</ele>
        <time>2026-03-16T13:15:18Z</time>
      </trkpt>
      <trkpt lat="43.5811" lon="6.15991">
        <ele>442.8</ele>
        <time>2026-03-16T13:15:40Z</time>
      </trkpt>
      <trkpt lat="43.58103" lon="6.15998">
        <ele>444.5</ele>
        <time>2026-03-16T13:16:20Z</time>
      </trkpt>
      <trkpt lat="43.58094" lon="6.15997">
        <ele>445.6</ele>
        <time>2026-03-16T13:16:34Z</time>
      </trkpt>
      <trkpt lat="43.58085" lon="6.15995">
        <ele>446.6</ele>
        <time>2026-03-16T13:16:46Z</time>
      </trkpt>
      <trkpt lat="43.58075" lon="6.15993">
        <ele>447.5</ele>
        <time>2026-03-16T13:16:57Z</time>
      </trkpt>
      <trkpt lat="43.58066" lon="6.1599">
        <ele>447.7</ele>
        <time>2026-03-16T13:17:07Z</time>
      </trkpt>
      <trkpt lat="43.58058" lon="6.15984">
        <ele>447.3</ele>
        <time>2026-03-16T13:17:52Z</time>
      </trkpt>
      <trkpt lat="43.5805" lon="6.15991">
        <ele>445.7</ele>
        <time>2026-03-16T13:20:20Z</time>
      </trkpt>
      <trkpt lat="43.58056" lon="6.15981">
        <ele>442.7</ele>
        <time>2026-03-16T13:24:01Z</time>
      </trkpt>
      <trkpt lat="43.58049" lon="6.15989">
        <ele>441.1</ele>
        <time>2026-03-16T13:24:52Z</time>
      </trkpt>
      <trkpt lat="43.5804" lon="6.15983">
        <ele>440.1</ele>
        <time>2026-03-16T13:26:39Z</time>
      </trkpt>
      <trkpt lat="43.58032" lon="6.15988">
        <ele>439.3</ele>
        <time>2026-03-16T13:27:00Z</time>
      </trkpt>
      <trkpt lat="43.58023" lon="6.15992">
        <ele>439</ele>
        <time>2026-03-16T13:27:21Z</time>
      </trkpt>
      <trkpt lat="43.58013" lon="6.15997">
        <ele>438.5</ele>
        <time>2026-03-16T13:27:51Z</time>
      </trkpt>
      <trkpt lat="43.58004" lon="6.15996">
        <ele>438</ele>
        <time>2026-03-16T13:28:03Z</time>
      </trkpt>
      <trkpt lat="43.57995" lon="6.15999">
        <ele>437.3</ele>
        <time>2026-03-16T13:28:13Z</time>
      </trkpt>
      <trkpt lat="43.57986" lon="6.16003">
        <ele>436.8</ele>
        <time>2026-03-16T13:28:24Z</time>
      </trkpt>
      <trkpt lat="43.57977" lon="6.16007">
        <ele>436.4</ele>
        <time>2026-03-16T13:28:36Z</time>
      </trkpt>
      <trkpt lat="43.57968" lon="6.16011">
        <ele>436.1</ele>
        <time>2026-03-16T13:28:46Z</time>
      </trkpt>
      <trkpt lat="43.57959" lon="6.16018">
        <ele>435.8</ele>
        <time>2026-03-16T13:28:59Z</time>
      </trkpt>
      <trkpt lat="43.57951" lon="6.16025">
        <ele>435.3</ele>
        <time>2026-03-16T13:29:12Z</time>
      </trkpt>
      <trkpt lat="43.57943" lon="6.1603">
        <ele>434.7</ele>
        <time>2026-03-16T13:29:25Z</time>
      </trkpt>
      <trkpt lat="43.57934" lon="6.16035">
        <ele>433.7</ele>
        <time>2026-03-16T13:29:47Z</time>
      </trkpt>
      <trkpt lat="43.57925" lon="6.1604">
        <ele>432.9</ele>
        <time>2026-03-16T13:29:59Z</time>
      </trkpt>
      <trkpt lat="43.57916" lon="6.16046">
        <ele>432.3</ele>
        <time>2026-03-16T13:30:12Z</time>
      </trkpt>
      <trkpt lat="43.57908" lon="6.16051">
        <ele>431.7</ele>
        <time>2026-03-16T13:30:22Z</time>
      </trkpt>
      <trkpt lat="43.57899" lon="6.16056">
        <ele>431.2</ele>
        <time>2026-03-16T13:30:33Z</time>
      </trkpt>
      <trkpt lat="43.57891" lon="6.16063">
        <ele>430.4</ele>
        <time>2026-03-16T13:30:45Z</time>
      </trkpt>
      <trkpt lat="43.57882" lon="6.16068">
        <ele>430.2</ele>
        <time>2026-03-16T13:30:57Z</time>
      </trkpt>
      <trkpt lat="43.57873" lon="6.16074">
        <ele>429.9</ele>
        <time>2026-03-16T13:31:09Z</time>
      </trkpt>
      <trkpt lat="43.57865" lon="6.16081">
        <ele>429.5</ele>
        <time>2026-03-16T13:31:19Z</time>
      </trkpt>
      <trkpt lat="43.57858" lon="6.16089">
        <ele>429.2</ele>
        <time>2026-03-16T13:31:37Z</time>
      </trkpt>
      <trkpt lat="43.57849" lon="6.16095">
        <ele>429</ele>
        <time>2026-03-16T13:31:47Z</time>
      </trkpt>
      <trkpt lat="43.57842" lon="6.16102">
        <ele>428.5</ele>
        <time>2026-03-16T13:31:56Z</time>
      </trkpt>
      <trkpt lat="43.57836" lon="6.16112">
        <ele>427.4</ele>
        <time>2026-03-16T13:32:13Z</time>
      </trkpt>
      <trkpt lat="43.57828" lon="6.16121">
        <ele>426.9</ele>
        <time>2026-03-16T13:32:24Z</time>
      </trkpt>
      <trkpt lat="43.57821" lon="6.1613">
        <ele>426.6</ele>
        <time>2026-03-16T13:32:34Z</time>
      </trkpt>
      <trkpt lat="43.57815" lon="6.1614">
        <ele>426.3</ele>
        <time>2026-03-16T13:32:44Z</time>
      </trkpt>
      <trkpt lat="43.57808" lon="6.16149">
        <ele>425.6</ele>
        <time>2026-03-16T13:32:56Z</time>
      </trkpt>
      <trkpt lat="43.57802" lon="6.16158">
        <ele>424.9</ele>
        <time>2026-03-16T13:33:08Z</time>
      </trkpt>
      <trkpt lat="43.578" lon="6.16171">
        <ele>424.4</ele>
        <time>2026-03-16T13:33:48Z</time>
      </trkpt>
      <trkpt lat="43.57799" lon="6.16184">
        <ele>423.8</ele>
        <time>2026-03-16T13:34:02Z</time>
      </trkpt>
      <trkpt lat="43.57797" lon="6.16196">
        <ele>423.4</ele>
        <time>2026-03-16T13:34:15Z</time>
      </trkpt>
      <trkpt lat="43.57794" lon="6.16208">
        <ele>422.8</ele>
        <time>2026-03-16T13:34:26Z</time>
      </trkpt>
      <trkpt lat="43.5779" lon="6.1622">
        <ele>422.4</ele>
        <time>2026-03-16T13:34:36Z</time>
      </trkpt>
      <trkpt lat="43.57782" lon="6.16227">
        <ele>422.5</ele>
        <time>2026-03-16T13:35:13Z</time>
      </trkpt>
      <trkpt lat="43.57781" lon="6.16239">
        <ele>422.1</ele>
        <time>2026-03-16T13:35:24Z</time>
      </trkpt>
      <trkpt lat="43.57781" lon="6.16252">
        <ele>421.8</ele>
        <time>2026-03-16T13:35:35Z</time>
      </trkpt>
      <trkpt lat="43.57778" lon="6.16264">
        <ele>421.8</ele>
        <time>2026-03-16T13:35:45Z</time>
      </trkpt>
      <trkpt lat="43.57777" lon="6.16277">
        <ele>421.4</ele>
        <time>2026-03-16T13:35:54Z</time>
      </trkpt>
      <trkpt lat="43.57778" lon="6.1629">
        <ele>421</ele>
        <time>2026-03-16T13:36:05Z</time>
      </trkpt>
      <trkpt lat="43.57776" lon="6.16302">
        <ele>420.6</ele>
        <time>2026-03-16T13:36:14Z</time>
      </trkpt>
      <trkpt lat="43.57774" lon="6.16315">
        <ele>420.7</ele>
        <time>2026-03-16T13:36:26Z</time>
      </trkpt>
      <trkpt lat="43.57771" lon="6.16327">
        <ele>420.4</ele>
        <time>2026-03-16T13:36:37Z</time>
      </trkpt>
      <trkpt lat="43.57766" lon="6.16338">
        <ele>420.1</ele>
        <time>2026-03-16T13:36:46Z</time>
      </trkpt>
      <trkpt lat="43.57762" lon="6.1635">
        <ele>419.9</ele>
        <time>2026-03-16T13:36:57Z</time>
      </trkpt>
      <trkpt lat="43.57759" lon="6.16362">
        <ele>419.7</ele>
        <time>2026-03-16T13:37:09Z</time>
      </trkpt>
      <trkpt lat="43.57758" lon="6.16375">
        <ele>418.8</ele>
        <time>2026-03-16T13:37:20Z</time>
      </trkpt>
      <trkpt lat="43.57759" lon="6.16388">
        <ele>417.8</ele>
        <time>2026-03-16T13:37:32Z</time>
      </trkpt>
      <trkpt lat="43.57754" lon="6.16399">
        <ele>416.4</ele>
        <time>2026-03-16T13:37:45Z</time>
      </trkpt>
      <trkpt lat="43.57754" lon="6.16412">
        <ele>415.1</ele>
        <time>2026-03-16T13:37:56Z</time>
      </trkpt>
      <trkpt lat="43.57752" lon="6.16425">
        <ele>414</ele>
        <time>2026-03-16T13:38:11Z</time>
      </trkpt>
      <trkpt lat="43.57748" lon="6.16436">
        <ele>413.3</ele>
        <time>2026-03-16T13:38:23Z</time>
      </trkpt>
      <trkpt lat="43.57747" lon="6.16449">
        <ele>412.6</ele>
        <time>2026-03-16T13:38:59Z</time>
      </trkpt>
      <trkpt lat="43.57749" lon="6.16462">
        <ele>411</ele>
        <time>2026-03-16T13:39:17Z</time>
      </trkpt>
      <trkpt lat="43.57754" lon="6.16471">
        <ele>410.1</ele>
        <time>2026-03-16T13:39:30Z</time>
      </trkpt>
      <trkpt lat="43.57761" lon="6.16482">
        <ele>409.4</ele>
        <time>2026-03-16T13:40:03Z</time>
      </trkpt>
      <trkpt lat="43.57764" lon="6.16494">
        <ele>408.5</ele>
        <time>2026-03-16T13:40:15Z</time>
      </trkpt>
      <trkpt lat="43.57765" lon="6.16506">
        <ele>408.1</ele>
        <time>2026-03-16T13:40:28Z</time>
      </trkpt>
      <trkpt lat="43.57765" lon="6.1652">
        <ele>407.7</ele>
        <time>2026-03-16T13:40:48Z</time>
      </trkpt>
      <trkpt lat="43.57764" lon="6.16533">
        <ele>407.2</ele>
        <time>2026-03-16T13:40:58Z</time>
      </trkpt>
      <trkpt lat="43.57758" lon="6.16544">
        <ele>407</ele>
        <time>2026-03-16T13:41:18Z</time>
      </trkpt>
      <trkpt lat="43.57754" lon="6.16556">
        <ele>406.6</ele>
        <time>2026-03-16T13:43:22Z</time>
      </trkpt>
      <trkpt lat="43.57748" lon="6.16566">
        <ele>405.5</ele>
        <time>2026-03-16T13:43:36Z</time>
      </trkpt>
      <trkpt lat="43.57741" lon="6.16575">
        <ele>404.7</ele>
        <time>2026-03-16T13:43:51Z</time>
      </trkpt>
      <trkpt lat="43.57732" lon="6.16581">
        <ele>404.4</ele>
        <time>2026-03-16T13:44:19Z</time>
      </trkpt>
      <trkpt lat="43.57725" lon="6.1659">
        <ele>403.5</ele>
        <time>2026-03-16T13:44:32Z</time>
      </trkpt>
      <trkpt lat="43.57718" lon="6.166">
        <ele>403</ele>
        <time>2026-03-16T13:44:42Z</time>
      </trkpt>
      <trkpt lat="43.57711" lon="6.16609">
        <ele>402.8</ele>
        <time>2026-03-16T13:44:51Z</time>
      </trkpt>
      <trkpt lat="43.57705" lon="6.16619">
        <ele>402</ele>
        <time>2026-03-16T13:45:02Z</time>
      </trkpt>
      <trkpt lat="43.577" lon="6.16629">
        <ele>401.4</ele>
        <time>2026-03-16T13:45:18Z</time>
      </trkpt>
      <trkpt lat="43.57694" lon="6.1664">
        <ele>401</ele>
        <time>2026-03-16T13:45:27Z</time>
      </trkpt>
      <trkpt lat="43.5769" lon="6.16651">
        <ele>401.1</ele>
        <time>2026-03-16T13:45:35Z</time>
      </trkpt>
      <trkpt lat="43.57685" lon="6.16662">
        <ele>400.7</ele>
        <time>2026-03-16T13:45:45Z</time>
      </trkpt>
      <trkpt lat="43.57681" lon="6.16673">
        <ele>400.4</ele>
        <time>2026-03-16T13:45:55Z</time>
      </trkpt>
      <trkpt lat="43.57676" lon="6.16685">
        <ele>399.9</ele>
        <time>2026-03-16T13:46:05Z</time>
      </trkpt>
      <trkpt lat="43.57671" lon="6.16696">
        <ele>399.4</ele>
        <time>2026-03-16T13:46:15Z</time>
      </trkpt>
      <trkpt lat="43.57667" lon="6.16708">
        <ele>399.4</ele>
        <time>2026-03-16T13:46:25Z</time>
      </trkpt>
      <trkpt lat="43.57659" lon="6.16716">
        <ele>399.3</ele>
        <time>2026-03-16T13:46:35Z</time>
      </trkpt>
      <trkpt lat="43.57652" lon="6.16725">
        <ele>399.1</ele>
        <time>2026-03-16T13:46:44Z</time>
      </trkpt>
      <trkpt lat="43.57645" lon="6.16735">
        <ele>398.4</ele>
        <time>2026-03-16T13:46:54Z</time>
      </trkpt>
      <trkpt lat="43.57639" lon="6.16744">
        <ele>398.2</ele>
        <time>2026-03-16T13:47:05Z</time>
      </trkpt>
      <trkpt lat="43.57635" lon="6.16756">
        <ele>397.9</ele>
        <time>2026-03-16T13:47:15Z</time>
      </trkpt>
      <trkpt lat="43.57633" lon="6.16769">
        <ele>397.6</ele>
        <time>2026-03-16T13:47:27Z</time>
      </trkpt>
      <trkpt lat="43.57631" lon="6.16781">
        <ele>397.2</ele>
        <time>2026-03-16T13:47:37Z</time>
      </trkpt>
      <trkpt lat="43.57627" lon="6.16793">
        <ele>397.3</ele>
        <time>2026-03-16T13:47:51Z</time>
      </trkpt>
      <trkpt lat="43.57622" lon="6.16804">
        <ele>397.3</ele>
        <time>2026-03-16T13:48:01Z</time>
      </trkpt>
      <trkpt lat="43.57616" lon="6.16815">
        <ele>397.1</ele>
        <time>2026-03-16T13:48:11Z</time>
      </trkpt>
      <trkpt lat="43.5761" lon="6.16824">
        <ele>396.9</ele>
        <time>2026-03-16T13:48:21Z</time>
      </trkpt>
      <trkpt lat="43.57606" lon="6.16835">
        <ele>396.6</ele>
        <time>2026-03-16T13:48:34Z</time>
      </trkpt>
      <trkpt lat="43.57604" lon="6.16848">
        <ele>396.6</ele>
        <time>2026-03-16T13:48:44Z</time>
      </trkpt>
      <trkpt lat="43.57602" lon="6.1686">
        <ele>396.3</ele>
        <time>2026-03-16T13:48:56Z</time>
      </trkpt>
      <trkpt lat="43.57594" lon="6.16867">
        <ele>396</ele>
        <time>2026-03-16T13:49:07Z</time>
      </trkpt>
      <trkpt lat="43.57587" lon="6.16873">
        <ele>396.1</ele>
        <time>2026-03-16T13:49:17Z</time>
      </trkpt>
      <trkpt lat="43.57578" lon="6.1688">
        <ele>396.7</ele>
        <time>2026-03-16T13:49:30Z</time>
      </trkpt>
      <trkpt lat="43.5757" lon="6.16886">
        <ele>397.6</ele>
        <time>2026-03-16T13:49:41Z</time>
      </trkpt>
      <trkpt lat="43.57561" lon="6.16886">
        <ele>398.2</ele>
        <time>2026-03-16T13:49:51Z</time>
      </trkpt>
      <trkpt lat="43.57552" lon="6.16888">
        <ele>398.5</ele>
        <time>2026-03-16T13:50:08Z</time>
      </trkpt>
      <trkpt lat="43.57543" lon="6.16894">
        <ele>399</ele>
        <time>2026-03-16T13:50:30Z</time>
      </trkpt>
      <trkpt lat="43.57534" lon="6.16894">
        <ele>399.1</ele>
        <time>2026-03-16T13:50:41Z</time>
      </trkpt>
      <trkpt lat="43.57524" lon="6.16887">
        <ele>398.9</ele>
        <time>2026-03-16T13:51:21Z</time>
      </trkpt>
      <trkpt lat="43.57517" lon="6.16879">
        <ele>398.8</ele>
        <time>2026-03-16T13:51:29Z</time>
      </trkpt>
      <trkpt lat="43.57509" lon="6.16871">
        <ele>398.5</ele>
        <time>2026-03-16T13:51:39Z</time>
      </trkpt>
      <trkpt lat="43.57499" lon="6.16871">
        <ele>397.7</ele>
        <time>2026-03-16T13:51:49Z</time>
      </trkpt>
      <trkpt lat="43.5749" lon="6.16871">
        <ele>396.8</ele>
        <time>2026-03-16T13:51:59Z</time>
      </trkpt>
      <trkpt lat="43.57482" lon="6.16877">
        <ele>395.7</ele>
        <time>2026-03-16T13:52:12Z</time>
      </trkpt>
      <trkpt lat="43.57473" lon="6.16882">
        <ele>394.7</ele>
        <time>2026-03-16T13:52:25Z</time>
      </trkpt>
      <trkpt lat="43.57465" lon="6.16888">
        <ele>394.4</ele>
        <time>2026-03-16T13:52:38Z</time>
      </trkpt>
      <trkpt lat="43.57458" lon="6.16896">
        <ele>392.6</ele>
        <time>2026-03-16T13:52:49Z</time>
      </trkpt>
      <trkpt lat="43.57451" lon="6.16905">
        <ele>392</ele>
        <time>2026-03-16T13:53:12Z</time>
      </trkpt>
      <trkpt lat="43.57449" lon="6.16918">
        <ele>390.6</ele>
        <time>2026-03-16T13:53:28Z</time>
      </trkpt>
      <trkpt lat="43.57447" lon="6.1693">
        <ele>390.1</ele>
        <time>2026-03-16T13:53:40Z</time>
      </trkpt>
      <trkpt lat="43.5744" lon="6.16939">
        <ele>389.3</ele>
        <time>2026-03-16T13:53:54Z</time>
      </trkpt>
      <trkpt lat="43.57431" lon="6.16936">
        <ele>387.8</ele>
        <time>2026-03-16T13:54:11Z</time>
      </trkpt>
      <trkpt lat="43.57422" lon="6.16932">
        <ele>386.4</ele>
        <time>2026-03-16T13:54:25Z</time>
      </trkpt>
      <trkpt lat="43.57413" lon="6.16935">
        <ele>385.7</ele>
        <time>2026-03-16T13:54:39Z</time>
      </trkpt>
      <trkpt lat="43.57405" lon="6.16942">
        <ele>384.3</ele>
        <time>2026-03-16T13:54:55Z</time>
      </trkpt>
      <trkpt lat="43.57397" lon="6.16948">
        <ele>383.6</ele>
        <time>2026-03-16T13:55:06Z</time>
      </trkpt>
      <trkpt lat="43.57389" lon="6.16956">
        <ele>382.3</ele>
        <time>2026-03-16T13:55:19Z</time>
      </trkpt>
      <trkpt lat="43.57381" lon="6.16963">
        <ele>381.6</ele>
        <time>2026-03-16T13:55:30Z</time>
      </trkpt>
      <trkpt lat="43.57375" lon="6.16974">
        <ele>380.9</ele>
        <time>2026-03-16T13:55:41Z</time>
      </trkpt>
      <trkpt lat="43.57372" lon="6.16986">
        <ele>380.4</ele>
        <time>2026-03-16T13:55:50Z</time>
      </trkpt>
      <trkpt lat="43.57373" lon="6.16998">
        <ele>380.2</ele>
        <time>2026-03-16T13:56:01Z</time>
      </trkpt>
      <trkpt lat="43.57372" lon="6.17011">
        <ele>380.1</ele>
        <time>2026-03-16T13:56:11Z</time>
      </trkpt>
      <trkpt lat="43.57367" lon="6.17022">
        <ele>379.3</ele>
        <time>2026-03-16T13:56:23Z</time>
      </trkpt>
      <trkpt lat="43.57361" lon="6.17032">
        <ele>378.7</ele>
        <time>2026-03-16T13:56:33Z</time>
      </trkpt>
      <trkpt lat="43.57355" lon="6.17042">
        <ele>378.5</ele>
        <time>2026-03-16T13:56:55Z</time>
      </trkpt>
      <trkpt lat="43.57348" lon="6.1705">
        <ele>378.5</ele>
        <time>2026-03-16T13:57:05Z</time>
      </trkpt>
      <trkpt lat="43.57341" lon="6.17059">
        <ele>377.8</ele>
        <time>2026-03-16T13:57:15Z</time>
      </trkpt>
      <trkpt lat="43.57336" lon="6.17069">
        <ele>378.3</ele>
        <time>2026-03-16T13:57:25Z</time>
      </trkpt>
      <trkpt lat="43.57332" lon="6.17082">
        <ele>377.6</ele>
        <time>2026-03-16T13:57:35Z</time>
      </trkpt>
      <trkpt lat="43.57336" lon="6.17093">
        <ele>377.2</ele>
        <time>2026-03-16T13:57:45Z</time>
      </trkpt>
      <trkpt lat="43.57342" lon="6.17104">
        <ele>376</ele>
        <time>2026-03-16T13:57:56Z</time>
      </trkpt>
      <trkpt lat="43.57349" lon="6.17112">
        <ele>376.2</ele>
        <time>2026-03-16T13:58:06Z</time>
      </trkpt>
      <trkpt lat="43.57354" lon="6.17123">
        <ele>376.2</ele>
        <time>2026-03-16T13:58:16Z</time>
      </trkpt>
      <trkpt lat="43.57357" lon="6.17135">
        <ele>375.9</ele>
        <time>2026-03-16T13:58:26Z</time>
      </trkpt>
      <trkpt lat="43.57359" lon="6.17148">
        <ele>375.7</ele>
        <time>2026-03-16T13:58:35Z</time>
      </trkpt>
      <trkpt lat="43.57361" lon="6.17161">
        <ele>375.8</ele>
        <time>2026-03-16T13:58:45Z</time>
      </trkpt>
      <trkpt lat="43.57363" lon="6.17173">
        <ele>375.6</ele>
        <time>2026-03-16T13:58:54Z</time>
      </trkpt>
      <trkpt lat="43.57365" lon="6.17186">
        <ele>375.3</ele>
        <time>2026-03-16T13:59:04Z</time>
      </trkpt>
      <trkpt lat="43.57367" lon="6.17199">
        <ele>375.2</ele>
        <time>2026-03-16T13:59:13Z</time>
      </trkpt>
      <trkpt lat="43.57369" lon="6.17212">
        <ele>374.9</ele>
        <time>2026-03-16T13:59:23Z</time>
      </trkpt>
      <trkpt lat="43.57373" lon="6.17223">
        <ele>374.4</ele>
        <time>2026-03-16T13:59:33Z</time>
      </trkpt>
      <trkpt lat="43.57376" lon="6.17235">
        <ele>374</ele>
        <time>2026-03-16T13:59:42Z</time>
      </trkpt>
      <trkpt lat="43.57375" lon="6.17249">
        <ele>373.5</ele>
        <time>2026-03-16T13:59:53Z</time>
      </trkpt>
      <trkpt lat="43.57372" lon="6.17261">
        <ele>373.3</ele>
        <time>2026-03-16T14:00:03Z</time>
      </trkpt>
      <trkpt lat="43.57371" lon="6.17274">
        <ele>373.1</ele>
        <time>2026-03-16T14:00:13Z</time>
      </trkpt>
      <trkpt lat="43.57367" lon="6.17285">
        <ele>372.9</ele>
        <time>2026-03-16T14:00:23Z</time>
      </trkpt>
      <trkpt lat="43.57362" lon="6.17296">
        <ele>372.7</ele>
        <time>2026-03-16T14:00:31Z</time>
      </trkpt>
      <trkpt lat="43.5736" lon="6.17309">
        <ele>372.3</ele>
        <time>2026-03-16T14:00:42Z</time>
      </trkpt>
      <trkpt lat="43.57358" lon="6.17322">
        <ele>372.3</ele>
        <time>2026-03-16T14:00:53Z</time>
      </trkpt>
      <trkpt lat="43.57353" lon="6.17332">
        <ele>373.3</ele>
        <time>2026-03-16T14:01:10Z</time>
      </trkpt>
      <trkpt lat="43.57344" lon="6.17331">
        <ele>373.7</ele>
        <time>2026-03-16T14:02:30Z</time>
      </trkpt>
      <trkpt lat="43.57335" lon="6.17336">
        <ele>373.8</ele>
        <time>2026-03-16T14:03:02Z</time>
      </trkpt>
      <trkpt lat="43.57326" lon="6.17336">
        <ele>374</ele>
        <time>2026-03-16T14:03:13Z</time>
      </trkpt>
      <trkpt lat="43.57317" lon="6.17336">
        <ele>374.4</ele>
        <time>2026-03-16T14:03:24Z</time>
      </trkpt>
      <trkpt lat="43.57309" lon="6.17342">
        <ele>375.2</ele>
        <time>2026-03-16T14:03:39Z</time>
      </trkpt>
      <trkpt lat="43.57301" lon="6.17349">
        <ele>375.7</ele>
        <time>2026-03-16T14:03:55Z</time>
      </trkpt>
      <trkpt lat="43.57293" lon="6.17354">
        <ele>376.8</ele>
        <time>2026-03-16T14:04:10Z</time>
      </trkpt>
      <trkpt lat="43.57285" lon="6.17362">
        <ele>377</ele>
        <time>2026-03-16T14:04:19Z</time>
      </trkpt>
      <trkpt lat="43.57276" lon="6.17367">
        <ele>377.1</ele>
        <time>2026-03-16T14:04:32Z</time>
      </trkpt>
      <trkpt lat="43.57268" lon="6.17373">
        <ele>376.4</ele>
        <time>2026-03-16T14:04:42Z</time>
      </trkpt>
      <trkpt lat="43.5726" lon="6.17381">
        <ele>375.4</ele>
        <time>2026-03-16T14:04:52Z</time>
      </trkpt>
      <trkpt lat="43.57251" lon="6.17385">
        <ele>374.5</ele>
        <time>2026-03-16T14:05:03Z</time>
      </trkpt>
      <trkpt lat="43.57243" lon="6.17392">
        <ele>373.9</ele>
        <time>2026-03-16T14:05:17Z</time>
      </trkpt>
      <trkpt lat="43.57234" lon="6.17396">
        <ele>373.7</ele>
        <time>2026-03-16T14:05:28Z</time>
      </trkpt>
      <trkpt lat="43.57225" lon="6.17392">
        <ele>373.3</ele>
        <time>2026-03-16T14:05:41Z</time>
      </trkpt>
      <trkpt lat="43.57216" lon="6.17395">
        <ele>372.9</ele>
        <time>2026-03-16T14:05:57Z</time>
      </trkpt>
      <trkpt lat="43.57207" lon="6.174">
        <ele>372.9</ele>
        <time>2026-03-16T14:06:08Z</time>
      </trkpt>
      <trkpt lat="43.57198" lon="6.17401">
        <ele>373.1</ele>
        <time>2026-03-16T14:06:42Z</time>
      </trkpt>
      <trkpt lat="43.5719" lon="6.17406">
        <ele>373.4</ele>
        <time>2026-03-16T14:06:57Z</time>
      </trkpt>
      <trkpt lat="43.57181" lon="6.17411">
        <ele>373.4</ele>
        <time>2026-03-16T14:07:10Z</time>
      </trkpt>
      <trkpt lat="43.57172" lon="6.17415">
        <ele>373.3</ele>
        <time>2026-03-16T14:07:21Z</time>
      </trkpt>
      <trkpt lat="43.57163" lon="6.17418">
        <ele>373.6</ele>
        <time>2026-03-16T14:07:30Z</time>
      </trkpt>
      <trkpt lat="43.57154" lon="6.1742">
        <ele>373.7</ele>
        <time>2026-03-16T14:07:39Z</time>
      </trkpt>
      <trkpt lat="43.57144" lon="6.17423">
        <ele>374</ele>
        <time>2026-03-16T14:07:49Z</time>
      </trkpt>
      <trkpt lat="43.57134" lon="6.17425">
        <ele>374.4</ele>
        <time>2026-03-16T14:08:05Z</time>
      </trkpt>
      <trkpt lat="43.57125" lon="6.17424">
        <ele>374.5</ele>
        <time>2026-03-16T14:08:14Z</time>
      </trkpt>
      <trkpt lat="43.57116" lon="6.17429">
        <ele>374.7</ele>
        <time>2026-03-16T14:08:39Z</time>
      </trkpt>
      <trkpt lat="43.57108" lon="6.17432">
        <ele>375.1</ele>
        <time>2026-03-16T14:08:59Z</time>
      </trkpt>
      <trkpt lat="43.57099" lon="6.17436">
        <ele>375.3</ele>
        <time>2026-03-16T14:09:24Z</time>
      </trkpt>
      <trkpt lat="43.57089" lon="6.17437">
        <ele>375.4</ele>
        <time>2026-03-16T14:09:34Z</time>
      </trkpt>
      <trkpt lat="43.57079" lon="6.17438">
        <ele>375.6</ele>
        <time>2026-03-16T14:09:44Z</time>
      </trkpt>
      <trkpt lat="43.5707" lon="6.17441">
        <ele>375.6</ele>
        <time>2026-03-16T14:09:54Z</time>
      </trkpt>
      <trkpt lat="43.57061" lon="6.17443">
        <ele>375.8</ele>
        <time>2026-03-16T14:10:03Z</time>
      </trkpt>
      <trkpt lat="43.57052" lon="6.17446">
        <ele>376</ele>
        <time>2026-03-16T14:10:13Z</time>
      </trkpt>
      <trkpt lat="43.57042" lon="6.17448">
        <ele>375.9</ele>
        <time>2026-03-16T14:10:23Z</time>
      </trkpt>
      <trkpt lat="43.57033" lon="6.17451">
        <ele>376</ele>
        <time>2026-03-16T14:10:32Z</time>
      </trkpt>
      <trkpt lat="43.57024" lon="6.17453">
        <ele>376.1</ele>
        <time>2026-03-16T14:10:42Z</time>
      </trkpt>
      <trkpt lat="43.57014" lon="6.17455">
        <ele>376.1</ele>
        <time>2026-03-16T14:10:55Z</time>
      </trkpt>
      <trkpt lat="43.57006" lon="6.17461">
        <ele>376.4</ele>
        <time>2026-03-16T14:11:13Z</time>
      </trkpt>
      <trkpt lat="43.56997" lon="6.17462">
        <ele>376.5</ele>
        <time>2026-03-16T14:11:22Z</time>
      </trkpt>
      <trkpt lat="43.56988" lon="6.17466">
        <ele>376.6</ele>
        <time>2026-03-16T14:11:30Z</time>
      </trkpt>
      <trkpt lat="43.56979" lon="6.17468">
        <ele>376.7</ele>
        <time>2026-03-16T14:11:40Z</time>
      </trkpt>
      <trkpt lat="43.56969" lon="6.1747">
        <ele>377</ele>
        <time>2026-03-16T14:11:50Z</time>
      </trkpt>
      <trkpt lat="43.5696" lon="6.17471">
        <ele>377.1</ele>
        <time>2026-03-16T14:12:00Z</time>
      </trkpt>
      <trkpt lat="43.56951" lon="6.17474">
        <ele>377.1</ele>
        <time>2026-03-16T14:12:09Z</time>
      </trkpt>
      <trkpt lat="43.56942" lon="6.17477">
        <ele>377.1</ele>
        <time>2026-03-16T14:12:19Z</time>
      </trkpt>
      <trkpt lat="43.56933" lon="6.17481">
        <ele>377.2</ele>
        <time>2026-03-16T14:12:29Z</time>
      </trkpt>
      <trkpt lat="43.56924" lon="6.17485">
        <ele>377.3</ele>
        <time>2026-03-16T14:12:40Z</time>
      </trkpt>
      <trkpt lat="43.56915" lon="6.17487">
        <ele>377.3</ele>
        <time>2026-03-16T14:12:50Z</time>
      </trkpt>
      <trkpt lat="43.56905" lon="6.17491">
        <ele>377.3</ele>
        <time>2026-03-16T14:13:00Z</time>
      </trkpt>
      <trkpt lat="43.56896" lon="6.17491">
        <ele>377.4</ele>
        <time>2026-03-16T14:13:08Z</time>
      </trkpt>
      <trkpt lat="43.56887" lon="6.17493">
        <ele>377.7</ele>
        <time>2026-03-16T14:13:18Z</time>
      </trkpt>
      <trkpt lat="43.56878" lon="6.17496">
        <ele>378.3</ele>
        <time>2026-03-16T14:13:35Z</time>
      </trkpt>
      <trkpt lat="43.56876" lon="6.17509">
        <ele>381</ele>
        <time>2026-03-16T14:14:54Z</time>
      </trkpt>
      <trkpt lat="43.56873" lon="6.1752">
        <ele>381.5</ele>
        <time>2026-03-16T14:15:07Z</time>
      </trkpt>
      <trkpt lat="43.5687" lon="6.17533">
        <ele>382.1</ele>
        <time>2026-03-16T14:15:45Z</time>
      </trkpt>
      <trkpt lat="43.56867" lon="6.17546">
        <ele>382.7</ele>
        <time>2026-03-16T14:16:21Z</time>
      </trkpt>
      <trkpt lat="43.56865" lon="6.17558">
        <ele>382.9</ele>
        <time>2026-03-16T14:16:35Z</time>
      </trkpt>
      <trkpt lat="43.56863" lon="6.17572">
        <ele>383.2</ele>
        <time>2026-03-16T14:16:50Z</time>
      </trkpt>
      <trkpt lat="43.56861" lon="6.17584">
        <ele>383.4</ele>
        <time>2026-03-16T14:17:01Z</time>
      </trkpt>
      <trkpt lat="43.56859" lon="6.17596">
        <ele>384</ele>
        <time>2026-03-16T14:17:11Z</time>
      </trkpt>
      <trkpt lat="43.56857" lon="6.17609">
        <ele>384.7</ele>
        <time>2026-03-16T14:17:23Z</time>
      </trkpt>
      <trkpt lat="43.56852" lon="6.17621">
        <ele>385.4</ele>
        <time>2026-03-16T14:17:39Z</time>
      </trkpt>
      <trkpt lat="43.56849" lon="6.17633">
        <ele>385.8</ele>
        <time>2026-03-16T14:17:51Z</time>
      </trkpt>
      <trkpt lat="43.56843" lon="6.17644">
        <ele>385.5</ele>
        <time>2026-03-16T14:18:03Z</time>
      </trkpt>
      <trkpt lat="43.56844" lon="6.17657">
        <ele>385.4</ele>
        <time>2026-03-16T14:18:29Z</time>
      </trkpt>
      <trkpt lat="43.56841" lon="6.17669">
        <ele>385.8</ele>
        <time>2026-03-16T14:18:41Z</time>
      </trkpt>
      <trkpt lat="43.56844" lon="6.17681">
        <ele>386</ele>
        <time>2026-03-16T14:19:32Z</time>
      </trkpt>
      <trkpt lat="43.56847" lon="6.17693">
        <ele>385.9</ele>
        <time>2026-03-16T14:19:42Z</time>
      </trkpt>
      <trkpt lat="43.5685" lon="6.17705">
        <ele>386.2</ele>
        <time>2026-03-16T14:19:53Z</time>
      </trkpt>
      <trkpt lat="43.56853" lon="6.17717">
        <ele>386.2</ele>
        <time>2026-03-16T14:20:13Z</time>
      </trkpt>
      <trkpt lat="43.56858" lon="6.17728">
        <ele>386</ele>
        <time>2026-03-16T14:20:25Z</time>
      </trkpt>
      <trkpt lat="43.56863" lon="6.17739">
        <ele>385.7</ele>
        <time>2026-03-16T14:20:36Z</time>
      </trkpt>
      <trkpt lat="43.56868" lon="6.1775">
        <ele>385.5</ele>
        <time>2026-03-16T14:20:45Z</time>
      </trkpt>
      <trkpt lat="43.56872" lon="6.17762">
        <ele>385.3</ele>
        <time>2026-03-16T14:20:54Z</time>
      </trkpt>
      <trkpt lat="43.56878" lon="6.17773">
        <ele>385.2</ele>
        <time>2026-03-16T14:21:04Z</time>
      </trkpt>
      <trkpt lat="43.56883" lon="6.17784">
        <ele>384.9</ele>
        <time>2026-03-16T14:21:14Z</time>
      </trkpt>
      <trkpt lat="43.56888" lon="6.17795">
        <ele>384.7</ele>
        <time>2026-03-16T14:21:23Z</time>
      </trkpt>
      <trkpt lat="43.56892" lon="6.17808">
        <ele>384.9</ele>
        <time>2026-03-16T14:21:34Z</time>
      </trkpt>
      <trkpt lat="43.56898" lon="6.17819">
        <ele>384.8</ele>
        <time>2026-03-16T14:21:44Z</time>
      </trkpt>
      <trkpt lat="43.56903" lon="6.1783">
        <ele>384.3</ele>
        <time>2026-03-16T14:21:52Z</time>
      </trkpt>
      <trkpt lat="43.56906" lon="6.17842">
        <ele>384.4</ele>
        <time>2026-03-16T14:22:02Z</time>
      </trkpt>
      <trkpt lat="43.56913" lon="6.17853">
        <ele>384.3</ele>
        <time>2026-03-16T14:22:13Z</time>
      </trkpt>
      <trkpt lat="43.56915" lon="6.17865">
        <ele>384.2</ele>
        <time>2026-03-16T14:22:22Z</time>
      </trkpt>
      <trkpt lat="43.56918" lon="6.17878">
        <ele>384.7</ele>
        <time>2026-03-16T14:22:33Z</time>
      </trkpt>
      <trkpt lat="43.56921" lon="6.1789">
        <ele>384.7</ele>
        <time>2026-03-16T14:22:42Z</time>
      </trkpt>
      <trkpt lat="43.56924" lon="6.17901">
        <ele>384.2</ele>
        <time>2026-03-16T14:22:51Z</time>
      </trkpt>
      <trkpt lat="43.56925" lon="6.17914">
        <ele>383.8</ele>
        <time>2026-03-16T14:23:00Z</time>
      </trkpt>
      <trkpt lat="43.56928" lon="6.17926">
        <ele>383.6</ele>
        <time>2026-03-16T14:23:10Z</time>
      </trkpt>
      <trkpt lat="43.56929" lon="6.17939">
        <ele>383.6</ele>
        <time>2026-03-16T14:23:19Z</time>
      </trkpt>
      <trkpt lat="43.5693" lon="6.17952">
        <ele>383.5</ele>
        <time>2026-03-16T14:23:28Z</time>
      </trkpt>
      <trkpt lat="43.5693" lon="6.17965">
        <ele>383.7</ele>
        <time>2026-03-16T14:23:37Z</time>
      </trkpt>
      <trkpt lat="43.56929" lon="6.17977">
        <ele>383.7</ele>
        <time>2026-03-16T14:23:47Z</time>
      </trkpt>
      <trkpt lat="43.5693" lon="6.1799">
        <ele>383.5</ele>
        <time>2026-03-16T14:23:58Z</time>
      </trkpt>
      <trkpt lat="43.5693" lon="6.18003">
        <ele>383.5</ele>
        <time>2026-03-16T14:24:11Z</time>
      </trkpt>
      <trkpt lat="43.56927" lon="6.18015">
        <ele>383.4</ele>
        <time>2026-03-16T14:24:22Z</time>
      </trkpt>
      <trkpt lat="43.56925" lon="6.18027">
        <ele>383.4</ele>
        <time>2026-03-16T14:24:29Z</time>
      </trkpt>
      <trkpt lat="43.56922" lon="6.18041">
        <ele>383.4</ele>
        <time>2026-03-16T14:24:37Z</time>
      </trkpt>
      <trkpt lat="43.56918" lon="6.18052">
        <ele>383</ele>
        <time>2026-03-16T14:24:46Z</time>
      </trkpt>
      <trkpt lat="43.56914" lon="6.18064">
        <ele>383.1</ele>
        <time>2026-03-16T14:24:56Z</time>
      </trkpt>
      <trkpt lat="43.5691" lon="6.18076">
        <ele>383.1</ele>
        <time>2026-03-16T14:25:06Z</time>
      </trkpt>
      <trkpt lat="43.56905" lon="6.18087">
        <ele>382.8</ele>
        <time>2026-03-16T14:25:17Z</time>
      </trkpt>
      <trkpt lat="43.56905" lon="6.18099">
        <ele>382.5</ele>
        <time>2026-03-16T14:25:52Z</time>
      </trkpt>
      <trkpt lat="43.569" lon="6.1811">
        <ele>382.4</ele>
        <time>2026-03-16T14:26:07Z</time>
      </trkpt>
      <trkpt lat="43.56894" lon="6.1812">
        <ele>382.5</ele>
        <time>2026-03-16T14:26:21Z</time>
      </trkpt>
      <trkpt lat="43.56886" lon="6.18128">
        <ele>382.4</ele>
        <time>2026-03-16T14:26:34Z</time>
      </trkpt>
      <trkpt lat="43.5688" lon="6.18138">
        <ele>382.2</ele>
        <time>2026-03-16T14:26:47Z</time>
      </trkpt>
      <trkpt lat="43.56874" lon="6.18148">
        <ele>382.3</ele>
        <time>2026-03-16T14:27:01Z</time>
      </trkpt>
      <trkpt lat="43.56868" lon="6.18158">
        <ele>382.1</ele>
        <time>2026-03-16T14:27:16Z</time>
      </trkpt>
      <trkpt lat="43.56859" lon="6.18163">
        <ele>382.4</ele>
        <time>2026-03-16T14:27:34Z</time>
      </trkpt>
      <trkpt lat="43.5685" lon="6.18167">
        <ele>382.2</ele>
        <time>2026-03-16T14:27:43Z</time>
      </trkpt>
      <trkpt lat="43.5684" lon="6.18168">
        <ele>382.2</ele>
        <time>2026-03-16T14:27:54Z</time>
      </trkpt>
      <trkpt lat="43.56831" lon="6.18165">
        <ele>382.4</ele>
        <time>2026-03-16T14:28:02Z</time>
      </trkpt>
      <trkpt lat="43.56831" lon="6.18152">
        <ele>382.1</ele>
        <time>2026-03-16T14:28:14Z</time>
      </trkpt>
      <trkpt lat="43.56823" lon="6.18157">
        <ele>382.3</ele>
        <time>2026-03-16T14:29:34Z</time>
      </trkpt>
      <trkpt lat="43.56813" lon="6.18158">
        <ele>382.4</ele>
        <time>2026-03-16T14:30:01Z</time>
      </trkpt>
      <trkpt lat="43.56805" lon="6.18164">
        <ele>382.3</ele>
        <time>2026-03-16T14:30:34Z</time>
      </trkpt>
      <trkpt lat="43.56805" lon="6.18165">
        <ele>382.2</ele>
        <time>2026-03-16T14:33:25Z</time>
      </trkpt>
    </trkseg>
  </trk>
</gpx>